<?xml version="1.0" encoding="UTF-8" standalone="no" ?>
<gpx xmlns="http://www.topografix.com/GPX/1/1" xmlns:xsi="http://www.w3.org/2001/XMLSchema-instance" xsi:schemaLocation="http://www.topografix.com/GPX/1/1 http://www.topografix.com/GPX/1/1/gpx.xsd" version="1.1" creator="VisuGPX - https://www.visugpx.com">
  <metadata>
    <name>Lac de Montbel</name>
  </metadata>
  <wpt lat="42.98347" lon="1.93423">
    <ele>440</ele>
    <name><![CDATA[Point de passage 1]]></name>
    <type><![CDATA[GENERIC]]></type>
  </wpt>
  <wpt lat="42.9835" lon="1.93429">
    <ele>458</ele>
    <name><![CDATA[Point de passage 2]]></name>
    <type><![CDATA[GENERIC]]></type>
  </wpt>
  <trk>
    <name><![CDATA[Lac de Montbel ]]></name>
    <trkseg>
      <trkpt lat="42.98347" lon="1.93423">
        <ele>440</ele>
        <time>2026-04-06T12:12:10.000Z</time>
      </trkpt>
      <trkpt lat="42.98348" lon="1.93427">
        <ele>440</ele>
        <time>2026-04-06T12:12:12.000Z</time>
      </trkpt>
      <trkpt lat="42.98346" lon="1.93437">
        <ele>440</ele>
        <time>2026-04-06T12:13:00.000Z</time>
      </trkpt>
      <trkpt lat="42.98345" lon="1.93449">
        <ele>458</ele>
        <time>2026-04-06T12:13:08.000Z</time>
      </trkpt>
      <trkpt lat="42.98345" lon="1.93463">
        <ele>451</ele>
        <time>2026-04-06T12:13:16.000Z</time>
      </trkpt>
      <trkpt lat="42.98348" lon="1.93475">
        <ele>453</ele>
        <time>2026-04-06T12:13:25.000Z</time>
      </trkpt>
      <trkpt lat="42.98352" lon="1.93487">
        <ele>454</ele>
        <time>2026-04-06T12:13:32.000Z</time>
      </trkpt>
      <trkpt lat="42.98357" lon="1.93498">
        <ele>456</ele>
        <time>2026-04-06T12:13:40.000Z</time>
      </trkpt>
      <trkpt lat="42.9836" lon="1.93511">
        <ele>456</ele>
        <time>2026-04-06T12:13:51.000Z</time>
      </trkpt>
      <trkpt lat="42.98363" lon="1.93523">
        <ele>456</ele>
        <time>2026-04-06T12:13:58.000Z</time>
      </trkpt>
      <trkpt lat="42.98362" lon="1.93536">
        <ele>457</ele>
        <time>2026-04-06T12:14:06.000Z</time>
      </trkpt>
      <trkpt lat="42.98359" lon="1.93549">
        <ele>457</ele>
        <time>2026-04-06T12:14:19.000Z</time>
      </trkpt>
      <trkpt lat="42.98356" lon="1.93564">
        <ele>457</ele>
        <time>2026-04-06T12:14:30.000Z</time>
      </trkpt>
      <trkpt lat="42.98353" lon="1.93577">
        <ele>457</ele>
        <time>2026-04-06T12:14:38.000Z</time>
      </trkpt>
      <trkpt lat="42.9835" lon="1.93592">
        <ele>458</ele>
        <time>2026-04-06T12:14:47.000Z</time>
      </trkpt>
      <trkpt lat="42.98347" lon="1.93604">
        <ele>458</ele>
        <time>2026-04-06T12:14:55.000Z</time>
      </trkpt>
      <trkpt lat="42.98345" lon="1.93617">
        <ele>458</ele>
        <time>2026-04-06T12:15:04.000Z</time>
      </trkpt>
      <trkpt lat="42.98342" lon="1.93632">
        <ele>458</ele>
        <time>2026-04-06T12:15:18.000Z</time>
      </trkpt>
      <trkpt lat="42.9834" lon="1.93645">
        <ele>458</ele>
        <time>2026-04-06T12:15:23.000Z</time>
      </trkpt>
      <trkpt lat="42.98339" lon="1.93661">
        <ele>458</ele>
        <time>2026-04-06T12:15:31.000Z</time>
      </trkpt>
      <trkpt lat="42.98338" lon="1.93674">
        <ele>458</ele>
        <time>2026-04-06T12:15:41.000Z</time>
      </trkpt>
      <trkpt lat="42.98335" lon="1.93687">
        <ele>458</ele>
        <time>2026-04-06T12:15:50.000Z</time>
      </trkpt>
      <trkpt lat="42.98333" lon="1.93699">
        <ele>458</ele>
        <time>2026-04-06T12:15:57.000Z</time>
      </trkpt>
      <trkpt lat="42.98331" lon="1.93712">
        <ele>458</ele>
        <time>2026-04-06T12:16:05.000Z</time>
      </trkpt>
      <trkpt lat="42.9833" lon="1.93725">
        <ele>458</ele>
        <time>2026-04-06T12:16:14.000Z</time>
      </trkpt>
      <trkpt lat="42.98327" lon="1.93736">
        <ele>458</ele>
        <time>2026-04-06T12:16:23.000Z</time>
      </trkpt>
      <trkpt lat="42.98324" lon="1.93748">
        <ele>458</ele>
        <time>2026-04-06T12:16:29.000Z</time>
      </trkpt>
      <trkpt lat="42.98325" lon="1.93761">
        <ele>458</ele>
        <time>2026-04-06T12:16:35.000Z</time>
      </trkpt>
      <trkpt lat="42.98325" lon="1.93773">
        <ele>458</ele>
        <time>2026-04-06T12:16:44.000Z</time>
      </trkpt>
      <trkpt lat="42.98319" lon="1.93783">
        <ele>458</ele>
        <time>2026-04-06T12:17:25.000Z</time>
      </trkpt>
      <trkpt lat="42.98317" lon="1.93798">
        <ele>458</ele>
        <time>2026-04-06T12:17:34.000Z</time>
      </trkpt>
      <trkpt lat="42.98321" lon="1.93809">
        <ele>458</ele>
        <time>2026-04-06T12:17:43.000Z</time>
      </trkpt>
      <trkpt lat="42.98321" lon="1.93824">
        <ele>457</ele>
        <time>2026-04-06T12:17:55.000Z</time>
      </trkpt>
      <trkpt lat="42.98317" lon="1.93837">
        <ele>456</ele>
        <time>2026-04-06T12:18:03.000Z</time>
      </trkpt>
      <trkpt lat="42.9831" lon="1.93845">
        <ele>456</ele>
        <time>2026-04-06T12:18:10.000Z</time>
      </trkpt>
      <trkpt lat="42.98304" lon="1.93855">
        <ele>455</ele>
        <time>2026-04-06T12:18:17.000Z</time>
      </trkpt>
      <trkpt lat="42.98303" lon="1.93868">
        <ele>455</ele>
        <time>2026-04-06T12:18:24.000Z</time>
      </trkpt>
      <trkpt lat="42.98303" lon="1.93882">
        <ele>455</ele>
        <time>2026-04-06T12:18:31.000Z</time>
      </trkpt>
      <trkpt lat="42.98306" lon="1.93894">
        <ele>455</ele>
        <time>2026-04-06T12:18:40.000Z</time>
      </trkpt>
      <trkpt lat="42.98311" lon="1.93905">
        <ele>455</ele>
        <time>2026-04-06T12:18:49.000Z</time>
      </trkpt>
      <trkpt lat="42.98316" lon="1.93915">
        <ele>455</ele>
        <time>2026-04-06T12:19:13.000Z</time>
      </trkpt>
      <trkpt lat="42.98323" lon="1.93922">
        <ele>455</ele>
        <time>2026-04-06T12:19:20.000Z</time>
      </trkpt>
      <trkpt lat="42.9833" lon="1.93932">
        <ele>455</ele>
        <time>2026-04-06T12:19:27.000Z</time>
      </trkpt>
      <trkpt lat="42.98339" lon="1.93938">
        <ele>455</ele>
        <time>2026-04-06T12:19:39.000Z</time>
      </trkpt>
      <trkpt lat="42.98347" lon="1.93946">
        <ele>455</ele>
        <time>2026-04-06T12:19:50.000Z</time>
      </trkpt>
      <trkpt lat="42.98354" lon="1.93956">
        <ele>455</ele>
        <time>2026-04-06T12:19:56.000Z</time>
      </trkpt>
      <trkpt lat="42.9836" lon="1.93964">
        <ele>454</ele>
        <time>2026-04-06T12:20:04.000Z</time>
      </trkpt>
      <trkpt lat="42.98368" lon="1.93973">
        <ele>454</ele>
        <time>2026-04-06T12:20:16.000Z</time>
      </trkpt>
      <trkpt lat="42.98376" lon="1.93983">
        <ele>454</ele>
        <time>2026-04-06T12:20:26.000Z</time>
      </trkpt>
      <trkpt lat="42.98382" lon="1.93992">
        <ele>453</ele>
        <time>2026-04-06T12:20:43.000Z</time>
      </trkpt>
      <trkpt lat="42.98388" lon="1.94">
        <ele>452</ele>
        <time>2026-04-06T12:21:00.000Z</time>
      </trkpt>
      <trkpt lat="42.98393" lon="1.94011">
        <ele>452</ele>
        <time>2026-04-06T12:21:07.000Z</time>
      </trkpt>
      <trkpt lat="42.98402" lon="1.9402">
        <ele>451</ele>
        <time>2026-04-06T12:21:13.000Z</time>
      </trkpt>
      <trkpt lat="42.9841" lon="1.94027">
        <ele>450</ele>
        <time>2026-04-06T12:21:22.000Z</time>
      </trkpt>
      <trkpt lat="42.98418" lon="1.94034">
        <ele>450</ele>
        <time>2026-04-06T12:21:29.000Z</time>
      </trkpt>
      <trkpt lat="42.98423" lon="1.94043">
        <ele>450</ele>
        <time>2026-04-06T12:21:36.000Z</time>
      </trkpt>
      <trkpt lat="42.98429" lon="1.94052">
        <ele>449</ele>
        <time>2026-04-06T12:21:43.000Z</time>
      </trkpt>
      <trkpt lat="42.98437" lon="1.94062">
        <ele>449</ele>
        <time>2026-04-06T12:21:52.000Z</time>
      </trkpt>
      <trkpt lat="42.98444" lon="1.94071">
        <ele>449</ele>
        <time>2026-04-06T12:21:59.000Z</time>
      </trkpt>
      <trkpt lat="42.98451" lon="1.94079">
        <ele>449</ele>
        <time>2026-04-06T12:22:08.000Z</time>
      </trkpt>
      <trkpt lat="42.98457" lon="1.94089">
        <ele>449</ele>
        <time>2026-04-06T12:22:16.000Z</time>
      </trkpt>
      <trkpt lat="42.98465" lon="1.94098">
        <ele>449</ele>
        <time>2026-04-06T12:22:25.000Z</time>
      </trkpt>
      <trkpt lat="42.98474" lon="1.94108">
        <ele>449</ele>
        <time>2026-04-06T12:22:35.000Z</time>
      </trkpt>
      <trkpt lat="42.98482" lon="1.94118">
        <ele>449</ele>
        <time>2026-04-06T12:22:44.000Z</time>
      </trkpt>
      <trkpt lat="42.9849" lon="1.94127">
        <ele>449</ele>
        <time>2026-04-06T12:22:54.000Z</time>
      </trkpt>
      <trkpt lat="42.98498" lon="1.94135">
        <ele>449</ele>
        <time>2026-04-06T12:23:03.000Z</time>
      </trkpt>
      <trkpt lat="42.98504" lon="1.94144">
        <ele>449</ele>
        <time>2026-04-06T12:23:11.000Z</time>
      </trkpt>
      <trkpt lat="42.98511" lon="1.94152">
        <ele>450</ele>
        <time>2026-04-06T12:23:19.000Z</time>
      </trkpt>
      <trkpt lat="42.98518" lon="1.94163">
        <ele>450</ele>
        <time>2026-04-06T12:23:28.000Z</time>
      </trkpt>
      <trkpt lat="42.98526" lon="1.94173">
        <ele>451</ele>
        <time>2026-04-06T12:23:38.000Z</time>
      </trkpt>
      <trkpt lat="42.98532" lon="1.94183">
        <ele>451</ele>
        <time>2026-04-06T12:23:44.000Z</time>
      </trkpt>
      <trkpt lat="42.9854" lon="1.94189">
        <ele>451</ele>
        <time>2026-04-06T12:23:53.000Z</time>
      </trkpt>
      <trkpt lat="42.98547" lon="1.94196">
        <ele>450</ele>
        <time>2026-04-06T12:24:00.000Z</time>
      </trkpt>
      <trkpt lat="42.98554" lon="1.94207">
        <ele>450</ele>
        <time>2026-04-06T12:24:09.000Z</time>
      </trkpt>
      <trkpt lat="42.98562" lon="1.94216">
        <ele>450</ele>
        <time>2026-04-06T12:24:18.000Z</time>
      </trkpt>
      <trkpt lat="42.98569" lon="1.94224">
        <ele>450</ele>
        <time>2026-04-06T12:24:25.000Z</time>
      </trkpt>
      <trkpt lat="42.98575" lon="1.94236">
        <ele>450</ele>
        <time>2026-04-06T12:24:34.000Z</time>
      </trkpt>
      <trkpt lat="42.98583" lon="1.94244">
        <ele>450</ele>
        <time>2026-04-06T12:24:44.000Z</time>
      </trkpt>
      <trkpt lat="42.9859" lon="1.94252">
        <ele>449</ele>
        <time>2026-04-06T12:24:52.000Z</time>
      </trkpt>
      <trkpt lat="42.98599" lon="1.94259">
        <ele>448</ele>
        <time>2026-04-06T12:25:01.000Z</time>
      </trkpt>
      <trkpt lat="42.98607" lon="1.9427">
        <ele>447</ele>
        <time>2026-04-06T12:25:11.000Z</time>
      </trkpt>
      <trkpt lat="42.98611" lon="1.94282">
        <ele>446</ele>
        <time>2026-04-06T12:25:19.000Z</time>
      </trkpt>
      <trkpt lat="42.98613" lon="1.94294">
        <ele>446</ele>
        <time>2026-04-06T12:25:30.000Z</time>
      </trkpt>
      <trkpt lat="42.9861" lon="1.94305">
        <ele>446</ele>
        <time>2026-04-06T12:25:39.000Z</time>
      </trkpt>
      <trkpt lat="42.98604" lon="1.94313">
        <ele>447</ele>
        <time>2026-04-06T12:25:48.000Z</time>
      </trkpt>
      <trkpt lat="42.98599" lon="1.94323">
        <ele>448</ele>
        <time>2026-04-06T12:26:03.000Z</time>
      </trkpt>
      <trkpt lat="42.986" lon="1.94336">
        <ele>449</ele>
        <time>2026-04-06T12:26:18.000Z</time>
      </trkpt>
      <trkpt lat="42.98598" lon="1.94354">
        <ele>450</ele>
        <time>2026-04-06T12:26:40.000Z</time>
      </trkpt>
      <trkpt lat="42.98594" lon="1.94362">
        <ele>451</ele>
        <time>2026-04-06T12:26:53.000Z</time>
      </trkpt>
      <trkpt lat="42.98597" lon="1.94356">
        <ele>451</ele>
        <time>2026-04-06T12:27:10.000Z</time>
      </trkpt>
      <trkpt lat="42.98591" lon="1.94363">
        <ele>452</ele>
        <time>2026-04-06T12:27:31.000Z</time>
      </trkpt>
      <trkpt lat="42.98586" lon="1.94373">
        <ele>453</ele>
        <time>2026-04-06T12:27:39.000Z</time>
      </trkpt>
      <trkpt lat="42.98581" lon="1.94384">
        <ele>453</ele>
        <time>2026-04-06T12:27:49.000Z</time>
      </trkpt>
      <trkpt lat="42.98575" lon="1.94393">
        <ele>452</ele>
        <time>2026-04-06T12:27:58.000Z</time>
      </trkpt>
      <trkpt lat="42.98568" lon="1.94402">
        <ele>452</ele>
        <time>2026-04-06T12:28:10.000Z</time>
      </trkpt>
      <trkpt lat="42.98564" lon="1.94415">
        <ele>451</ele>
        <time>2026-04-06T12:28:21.000Z</time>
      </trkpt>
      <trkpt lat="42.98559" lon="1.94426">
        <ele>451</ele>
        <time>2026-04-06T12:28:32.000Z</time>
      </trkpt>
      <trkpt lat="42.98555" lon="1.94438">
        <ele>451</ele>
        <time>2026-04-06T12:28:45.000Z</time>
      </trkpt>
      <trkpt lat="42.98553" lon="1.94452">
        <ele>450</ele>
        <time>2026-04-06T12:28:55.000Z</time>
      </trkpt>
      <trkpt lat="42.9855" lon="1.94466">
        <ele>449</ele>
        <time>2026-04-06T12:29:28.000Z</time>
      </trkpt>
      <trkpt lat="42.98545" lon="1.94478">
        <ele>448</ele>
        <time>2026-04-06T12:29:35.000Z</time>
      </trkpt>
      <trkpt lat="42.98537" lon="1.94481">
        <ele>446</ele>
        <time>2026-04-06T12:29:44.000Z</time>
      </trkpt>
      <trkpt lat="42.9854" lon="1.94491">
        <ele>445</ele>
        <time>2026-04-06T12:30:49.000Z</time>
      </trkpt>
      <trkpt lat="42.98542" lon="1.94502">
        <ele>444</ele>
        <time>2026-04-06T12:30:57.000Z</time>
      </trkpt>
      <trkpt lat="42.98541" lon="1.94514">
        <ele>444</ele>
        <time>2026-04-06T12:31:06.000Z</time>
      </trkpt>
      <trkpt lat="42.9854" lon="1.94527">
        <ele>443</ele>
        <time>2026-04-06T12:31:14.000Z</time>
      </trkpt>
      <trkpt lat="42.98537" lon="1.9454">
        <ele>443</ele>
        <time>2026-04-06T12:31:23.000Z</time>
      </trkpt>
      <trkpt lat="42.98534" lon="1.94552">
        <ele>442</ele>
        <time>2026-04-06T12:31:32.000Z</time>
      </trkpt>
      <trkpt lat="42.98528" lon="1.94565">
        <ele>441</ele>
        <time>2026-04-06T12:31:43.000Z</time>
      </trkpt>
      <trkpt lat="42.98523" lon="1.94578">
        <ele>442</ele>
        <time>2026-04-06T12:31:54.000Z</time>
      </trkpt>
      <trkpt lat="42.98518" lon="1.94591">
        <ele>443</ele>
        <time>2026-04-06T12:32:05.000Z</time>
      </trkpt>
      <trkpt lat="42.98515" lon="1.94604">
        <ele>444</ele>
        <time>2026-04-06T12:32:13.000Z</time>
      </trkpt>
      <trkpt lat="42.98511" lon="1.94615">
        <ele>445</ele>
        <time>2026-04-06T12:32:22.000Z</time>
      </trkpt>
      <trkpt lat="42.9851" lon="1.94628">
        <ele>444</ele>
        <time>2026-04-06T12:32:32.000Z</time>
      </trkpt>
      <trkpt lat="42.9851" lon="1.9464">
        <ele>443</ele>
        <time>2026-04-06T12:32:42.000Z</time>
      </trkpt>
      <trkpt lat="42.98507" lon="1.94651">
        <ele>443</ele>
        <time>2026-04-06T12:32:50.000Z</time>
      </trkpt>
      <trkpt lat="42.98504" lon="1.94662">
        <ele>443</ele>
        <time>2026-04-06T12:33:00.000Z</time>
      </trkpt>
      <trkpt lat="42.98501" lon="1.94675">
        <ele>443</ele>
        <time>2026-04-06T12:33:23.000Z</time>
      </trkpt>
      <trkpt lat="42.98498" lon="1.94686">
        <ele>444</ele>
        <time>2026-04-06T12:33:32.000Z</time>
      </trkpt>
      <trkpt lat="42.98492" lon="1.94687">
        <ele>443</ele>
        <time>2026-04-06T12:34:07.000Z</time>
      </trkpt>
      <trkpt lat="42.98496" lon="1.94696">
        <ele>443</ele>
        <time>2026-04-06T12:34:30.000Z</time>
      </trkpt>
      <trkpt lat="42.98499" lon="1.94708">
        <ele>442</ele>
        <time>2026-04-06T12:34:40.000Z</time>
      </trkpt>
      <trkpt lat="42.98502" lon="1.94719">
        <ele>441</ele>
        <time>2026-04-06T12:34:55.000Z</time>
      </trkpt>
      <trkpt lat="42.98503" lon="1.94732">
        <ele>441</ele>
        <time>2026-04-06T12:35:11.000Z</time>
      </trkpt>
      <trkpt lat="42.98504" lon="1.94745">
        <ele>442</ele>
        <time>2026-04-06T12:35:17.000Z</time>
      </trkpt>
      <trkpt lat="42.98501" lon="1.94757">
        <ele>443</ele>
        <time>2026-04-06T12:35:24.000Z</time>
      </trkpt>
      <trkpt lat="42.98496" lon="1.94771">
        <ele>445</ele>
        <time>2026-04-06T12:35:47.000Z</time>
      </trkpt>
      <trkpt lat="42.98494" lon="1.94786">
        <ele>446</ele>
        <time>2026-04-06T12:35:58.000Z</time>
      </trkpt>
      <trkpt lat="42.98492" lon="1.948">
        <ele>446</ele>
        <time>2026-04-06T12:36:10.000Z</time>
      </trkpt>
      <trkpt lat="42.9849" lon="1.94813">
        <ele>446</ele>
        <time>2026-04-06T12:36:23.000Z</time>
      </trkpt>
      <trkpt lat="42.9849" lon="1.94825">
        <ele>447</ele>
        <time>2026-04-06T12:36:43.000Z</time>
      </trkpt>
      <trkpt lat="42.98492" lon="1.94837">
        <ele>447</ele>
        <time>2026-04-06T12:37:08.000Z</time>
      </trkpt>
      <trkpt lat="42.98492" lon="1.94849">
        <ele>447</ele>
        <time>2026-04-06T12:37:15.000Z</time>
      </trkpt>
      <trkpt lat="42.98491" lon="1.94862">
        <ele>447</ele>
        <time>2026-04-06T12:37:26.000Z</time>
      </trkpt>
      <trkpt lat="42.98489" lon="1.94874">
        <ele>447</ele>
        <time>2026-04-06T12:37:36.000Z</time>
      </trkpt>
      <trkpt lat="42.98487" lon="1.94886">
        <ele>447</ele>
        <time>2026-04-06T12:37:47.000Z</time>
      </trkpt>
      <trkpt lat="42.98486" lon="1.949">
        <ele>448</ele>
        <time>2026-04-06T12:37:58.000Z</time>
      </trkpt>
      <trkpt lat="42.98486" lon="1.94913">
        <ele>449</ele>
        <time>2026-04-06T12:38:06.000Z</time>
      </trkpt>
      <trkpt lat="42.98484" lon="1.94927">
        <ele>451</ele>
        <time>2026-04-06T12:38:16.000Z</time>
      </trkpt>
      <trkpt lat="42.98483" lon="1.94941">
        <ele>452</ele>
        <time>2026-04-06T12:38:23.000Z</time>
      </trkpt>
      <trkpt lat="42.98482" lon="1.94955">
        <ele>452</ele>
        <time>2026-04-06T12:38:34.000Z</time>
      </trkpt>
      <trkpt lat="42.98481" lon="1.94969">
        <ele>450</ele>
        <time>2026-04-06T12:38:46.000Z</time>
      </trkpt>
      <trkpt lat="42.98482" lon="1.94983">
        <ele>449</ele>
        <time>2026-04-06T12:38:57.000Z</time>
      </trkpt>
      <trkpt lat="42.98479" lon="1.94995">
        <ele>447</ele>
        <time>2026-04-06T12:39:04.000Z</time>
      </trkpt>
      <trkpt lat="42.98478" lon="1.95009">
        <ele>446</ele>
        <time>2026-04-06T12:39:16.000Z</time>
      </trkpt>
      <trkpt lat="42.98479" lon="1.95023">
        <ele>445</ele>
        <time>2026-04-06T12:39:25.000Z</time>
      </trkpt>
      <trkpt lat="42.98479" lon="1.95037">
        <ele>445</ele>
        <time>2026-04-06T12:39:35.000Z</time>
      </trkpt>
      <trkpt lat="42.98481" lon="1.95052">
        <ele>445</ele>
        <time>2026-04-06T12:39:46.000Z</time>
      </trkpt>
      <trkpt lat="42.98483" lon="1.95066">
        <ele>445</ele>
        <time>2026-04-06T12:39:55.000Z</time>
      </trkpt>
      <trkpt lat="42.98486" lon="1.95079">
        <ele>446</ele>
        <time>2026-04-06T12:40:04.000Z</time>
      </trkpt>
      <trkpt lat="42.9849" lon="1.9509">
        <ele>446</ele>
        <time>2026-04-06T12:40:14.000Z</time>
      </trkpt>
      <trkpt lat="42.9849" lon="1.95104">
        <ele>446</ele>
        <time>2026-04-06T12:40:24.000Z</time>
      </trkpt>
      <trkpt lat="42.98493" lon="1.95115">
        <ele>446</ele>
        <time>2026-04-06T12:40:44.000Z</time>
      </trkpt>
      <trkpt lat="42.98492" lon="1.95129">
        <ele>447</ele>
        <time>2026-04-06T12:41:02.000Z</time>
      </trkpt>
      <trkpt lat="42.9849" lon="1.95144">
        <ele>447</ele>
        <time>2026-04-06T12:41:14.000Z</time>
      </trkpt>
      <trkpt lat="42.98488" lon="1.95156">
        <ele>447</ele>
        <time>2026-04-06T12:41:24.000Z</time>
      </trkpt>
      <trkpt lat="42.98488" lon="1.95168">
        <ele>448</ele>
        <time>2026-04-06T12:41:36.000Z</time>
      </trkpt>
      <trkpt lat="42.98487" lon="1.95183">
        <ele>449</ele>
        <time>2026-04-06T12:41:47.000Z</time>
      </trkpt>
      <trkpt lat="42.98484" lon="1.95195">
        <ele>450</ele>
        <time>2026-04-06T12:41:55.000Z</time>
      </trkpt>
      <trkpt lat="42.98482" lon="1.95207">
        <ele>451</ele>
        <time>2026-04-06T12:42:06.000Z</time>
      </trkpt>
      <trkpt lat="42.98483" lon="1.9522">
        <ele>452</ele>
        <time>2026-04-06T12:42:18.000Z</time>
      </trkpt>
      <trkpt lat="42.98479" lon="1.9523">
        <ele>452</ele>
        <time>2026-04-06T12:42:33.000Z</time>
      </trkpt>
      <trkpt lat="42.98477" lon="1.95242">
        <ele>453</ele>
        <time>2026-04-06T12:42:42.000Z</time>
      </trkpt>
      <trkpt lat="42.98475" lon="1.95255">
        <ele>454</ele>
        <time>2026-04-06T12:42:55.000Z</time>
      </trkpt>
      <trkpt lat="42.98474" lon="1.95269">
        <ele>454</ele>
        <time>2026-04-06T12:43:06.000Z</time>
      </trkpt>
      <trkpt lat="42.98473" lon="1.9528">
        <ele>454</ele>
        <time>2026-04-06T12:43:16.000Z</time>
      </trkpt>
      <trkpt lat="42.98479" lon="1.95288">
        <ele>454</ele>
        <time>2026-04-06T12:44:07.000Z</time>
      </trkpt>
      <trkpt lat="42.98481" lon="1.953">
        <ele>454</ele>
        <time>2026-04-06T12:44:17.000Z</time>
      </trkpt>
      <trkpt lat="42.98479" lon="1.95311">
        <ele>454</ele>
        <time>2026-04-06T12:44:26.000Z</time>
      </trkpt>
      <trkpt lat="42.98476" lon="1.95324">
        <ele>453</ele>
        <time>2026-04-06T12:44:36.000Z</time>
      </trkpt>
      <trkpt lat="42.98471" lon="1.95333">
        <ele>453</ele>
        <time>2026-04-06T12:44:44.000Z</time>
      </trkpt>
      <trkpt lat="42.98474" lon="1.95344">
        <ele>453</ele>
        <time>2026-04-06T12:45:50.000Z</time>
      </trkpt>
      <trkpt lat="42.98474" lon="1.95356">
        <ele>453</ele>
        <time>2026-04-06T12:46:00.000Z</time>
      </trkpt>
      <trkpt lat="42.98473" lon="1.95368">
        <ele>453</ele>
        <time>2026-04-06T12:46:09.000Z</time>
      </trkpt>
      <trkpt lat="42.98471" lon="1.9538">
        <ele>453</ele>
        <time>2026-04-06T12:46:18.000Z</time>
      </trkpt>
      <trkpt lat="42.9847" lon="1.95392">
        <ele>452</ele>
        <time>2026-04-06T12:46:30.000Z</time>
      </trkpt>
      <trkpt lat="42.98467" lon="1.95403">
        <ele>451</ele>
        <time>2026-04-06T12:46:37.000Z</time>
      </trkpt>
      <trkpt lat="42.98465" lon="1.95416">
        <ele>451</ele>
        <time>2026-04-06T12:46:47.000Z</time>
      </trkpt>
      <trkpt lat="42.98461" lon="1.95428">
        <ele>451</ele>
        <time>2026-04-06T12:46:55.000Z</time>
      </trkpt>
      <trkpt lat="42.98462" lon="1.9544">
        <ele>451</ele>
        <time>2026-04-06T12:47:08.000Z</time>
      </trkpt>
      <trkpt lat="42.98462" lon="1.95454">
        <ele>452</ele>
        <time>2026-04-06T12:47:17.000Z</time>
      </trkpt>
      <trkpt lat="42.98464" lon="1.95466">
        <ele>452</ele>
        <time>2026-04-06T12:47:31.000Z</time>
      </trkpt>
      <trkpt lat="42.98469" lon="1.95477">
        <ele>453</ele>
        <time>2026-04-06T12:48:47.000Z</time>
      </trkpt>
      <trkpt lat="42.98478" lon="1.95482">
        <ele>453</ele>
        <time>2026-04-06T12:48:53.000Z</time>
      </trkpt>
      <trkpt lat="42.98488" lon="1.95482">
        <ele>454</ele>
        <time>2026-04-06T12:49:01.000Z</time>
      </trkpt>
      <trkpt lat="42.98497" lon="1.95484">
        <ele>454</ele>
        <time>2026-04-06T12:49:09.000Z</time>
      </trkpt>
      <trkpt lat="42.98507" lon="1.95484">
        <ele>455</ele>
        <time>2026-04-06T12:49:26.000Z</time>
      </trkpt>
      <trkpt lat="42.98516" lon="1.95485">
        <ele>456</ele>
        <time>2026-04-06T12:49:33.000Z</time>
      </trkpt>
      <trkpt lat="42.98525" lon="1.95482">
        <ele>458</ele>
        <time>2026-04-06T12:49:44.000Z</time>
      </trkpt>
      <trkpt lat="42.98534" lon="1.95477">
        <ele>459</ele>
        <time>2026-04-06T12:49:52.000Z</time>
      </trkpt>
      <trkpt lat="42.98544" lon="1.95472">
        <ele>459</ele>
        <time>2026-04-06T12:50:01.000Z</time>
      </trkpt>
      <trkpt lat="42.98555" lon="1.95469">
        <ele>459</ele>
        <time>2026-04-06T12:50:10.000Z</time>
      </trkpt>
      <trkpt lat="42.98565" lon="1.95474">
        <ele>459</ele>
        <time>2026-04-06T12:50:30.000Z</time>
      </trkpt>
      <trkpt lat="42.98575" lon="1.95477">
        <ele>459</ele>
        <time>2026-04-06T12:50:36.000Z</time>
      </trkpt>
      <trkpt lat="42.98584" lon="1.95477">
        <ele>459</ele>
        <time>2026-04-06T12:50:48.000Z</time>
      </trkpt>
      <trkpt lat="42.98592" lon="1.95474">
        <ele>459</ele>
        <time>2026-04-06T12:50:54.000Z</time>
      </trkpt>
      <trkpt lat="42.986" lon="1.95467">
        <ele>458</ele>
        <time>2026-04-06T12:51:00.000Z</time>
      </trkpt>
      <trkpt lat="42.98606" lon="1.95459">
        <ele>457</ele>
        <time>2026-04-06T12:51:09.000Z</time>
      </trkpt>
      <trkpt lat="42.98612" lon="1.9545">
        <ele>456</ele>
        <time>2026-04-06T12:51:16.000Z</time>
      </trkpt>
      <trkpt lat="42.98615" lon="1.95438">
        <ele>454</ele>
        <time>2026-04-06T12:51:25.000Z</time>
      </trkpt>
      <trkpt lat="42.98615" lon="1.95426">
        <ele>453</ele>
        <time>2026-04-06T12:51:33.000Z</time>
      </trkpt>
      <trkpt lat="42.98617" lon="1.95411">
        <ele>452</ele>
        <time>2026-04-06T12:51:43.000Z</time>
      </trkpt>
      <trkpt lat="42.98617" lon="1.95397">
        <ele>452</ele>
        <time>2026-04-06T12:51:54.000Z</time>
      </trkpt>
      <trkpt lat="42.98618" lon="1.9538">
        <ele>452</ele>
        <time>2026-04-06T12:52:03.000Z</time>
      </trkpt>
      <trkpt lat="42.98619" lon="1.95367">
        <ele>452</ele>
        <time>2026-04-06T12:52:09.000Z</time>
      </trkpt>
      <trkpt lat="42.98621" lon="1.95355">
        <ele>451</ele>
        <time>2026-04-06T12:52:16.000Z</time>
      </trkpt>
      <trkpt lat="42.98624" lon="1.95343">
        <ele>450</ele>
        <time>2026-04-06T12:52:37.000Z</time>
      </trkpt>
      <trkpt lat="42.98625" lon="1.95328">
        <ele>449</ele>
        <time>2026-04-06T12:54:01.000Z</time>
      </trkpt>
      <trkpt lat="42.98625" lon="1.9531">
        <ele>448</ele>
        <time>2026-04-06T12:54:06.000Z</time>
      </trkpt>
      <trkpt lat="42.98623" lon="1.95296">
        <ele>448</ele>
        <time>2026-04-06T12:54:13.000Z</time>
      </trkpt>
      <trkpt lat="42.98623" lon="1.95282">
        <ele>448</ele>
        <time>2026-04-06T12:54:20.000Z</time>
      </trkpt>
      <trkpt lat="42.98626" lon="1.9527">
        <ele>449</ele>
        <time>2026-04-06T12:54:29.000Z</time>
      </trkpt>
      <trkpt lat="42.98633" lon="1.95263">
        <ele>450</ele>
        <time>2026-04-06T12:54:36.000Z</time>
      </trkpt>
      <trkpt lat="42.98641" lon="1.95255">
        <ele>451</ele>
        <time>2026-04-06T12:54:43.000Z</time>
      </trkpt>
      <trkpt lat="42.98648" lon="1.95248">
        <ele>452</ele>
        <time>2026-04-06T12:54:49.000Z</time>
      </trkpt>
      <trkpt lat="42.98654" lon="1.95236">
        <ele>454</ele>
        <time>2026-04-06T12:54:58.000Z</time>
      </trkpt>
      <trkpt lat="42.98661" lon="1.95225">
        <ele>454</ele>
        <time>2026-04-06T12:55:04.000Z</time>
      </trkpt>
      <trkpt lat="42.98664" lon="1.95213">
        <ele>454</ele>
        <time>2026-04-06T12:55:12.000Z</time>
      </trkpt>
      <trkpt lat="42.98668" lon="1.95202">
        <ele>454</ele>
        <time>2026-04-06T12:55:19.000Z</time>
      </trkpt>
      <trkpt lat="42.98674" lon="1.95193">
        <ele>454</ele>
        <time>2026-04-06T12:55:25.000Z</time>
      </trkpt>
      <trkpt lat="42.9868" lon="1.95183">
        <ele>454</ele>
        <time>2026-04-06T12:55:35.000Z</time>
      </trkpt>
      <trkpt lat="42.98682" lon="1.95172">
        <ele>454</ele>
        <time>2026-04-06T12:56:06.000Z</time>
      </trkpt>
      <trkpt lat="42.98684" lon="1.95159">
        <ele>453</ele>
        <time>2026-04-06T12:56:14.000Z</time>
      </trkpt>
      <trkpt lat="42.98692" lon="1.95149">
        <ele>452</ele>
        <time>2026-04-06T12:56:24.000Z</time>
      </trkpt>
      <trkpt lat="42.98702" lon="1.95145">
        <ele>451</ele>
        <time>2026-04-06T12:56:33.000Z</time>
      </trkpt>
      <trkpt lat="42.98709" lon="1.95137">
        <ele>450</ele>
        <time>2026-04-06T12:56:39.000Z</time>
      </trkpt>
      <trkpt lat="42.98715" lon="1.95128">
        <ele>449</ele>
        <time>2026-04-06T12:56:48.000Z</time>
      </trkpt>
      <trkpt lat="42.98722" lon="1.95119">
        <ele>449</ele>
        <time>2026-04-06T12:56:56.000Z</time>
      </trkpt>
      <trkpt lat="42.98728" lon="1.95109">
        <ele>449</ele>
        <time>2026-04-06T12:57:05.000Z</time>
      </trkpt>
      <trkpt lat="42.98736" lon="1.95099">
        <ele>450</ele>
        <time>2026-04-06T12:57:14.000Z</time>
      </trkpt>
      <trkpt lat="42.98743" lon="1.95088">
        <ele>451</ele>
        <time>2026-04-06T12:57:25.000Z</time>
      </trkpt>
      <trkpt lat="42.98748" lon="1.95075">
        <ele>452</ele>
        <time>2026-04-06T12:57:31.000Z</time>
      </trkpt>
      <trkpt lat="42.98754" lon="1.95062">
        <ele>453</ele>
        <time>2026-04-06T12:57:40.000Z</time>
      </trkpt>
      <trkpt lat="42.98758" lon="1.95051">
        <ele>454</ele>
        <time>2026-04-06T12:57:48.000Z</time>
      </trkpt>
      <trkpt lat="42.98763" lon="1.95041">
        <ele>454</ele>
        <time>2026-04-06T12:57:58.000Z</time>
      </trkpt>
      <trkpt lat="42.98766" lon="1.9503">
        <ele>455</ele>
        <time>2026-04-06T12:58:06.000Z</time>
      </trkpt>
      <trkpt lat="42.98771" lon="1.95021">
        <ele>455</ele>
        <time>2026-04-06T12:58:19.000Z</time>
      </trkpt>
      <trkpt lat="42.9877" lon="1.95009">
        <ele>455</ele>
        <time>2026-04-06T12:59:58.000Z</time>
      </trkpt>
      <trkpt lat="42.98768" lon="1.94997">
        <ele>454</ele>
        <time>2026-04-06T13:00:34.000Z</time>
      </trkpt>
      <trkpt lat="42.98771" lon="1.94983">
        <ele>452</ele>
        <time>2026-04-06T13:00:42.000Z</time>
      </trkpt>
      <trkpt lat="42.98776" lon="1.94973">
        <ele>451</ele>
        <time>2026-04-06T13:00:48.000Z</time>
      </trkpt>
      <trkpt lat="42.98779" lon="1.94961">
        <ele>449</ele>
        <time>2026-04-06T13:00:54.000Z</time>
      </trkpt>
      <trkpt lat="42.98779" lon="1.94949">
        <ele>448</ele>
        <time>2026-04-06T13:01:00.000Z</time>
      </trkpt>
      <trkpt lat="42.98782" lon="1.94936">
        <ele>447</ele>
        <time>2026-04-06T13:01:11.000Z</time>
      </trkpt>
      <trkpt lat="42.98787" lon="1.94925">
        <ele>447</ele>
        <time>2026-04-06T13:01:20.000Z</time>
      </trkpt>
      <trkpt lat="42.98792" lon="1.94912">
        <ele>448</ele>
        <time>2026-04-06T13:01:29.000Z</time>
      </trkpt>
      <trkpt lat="42.98791" lon="1.94898">
        <ele>449</ele>
        <time>2026-04-06T13:01:36.000Z</time>
      </trkpt>
      <trkpt lat="42.98795" lon="1.94887">
        <ele>451</ele>
        <time>2026-04-06T13:01:48.000Z</time>
      </trkpt>
      <trkpt lat="42.98804" lon="1.94883">
        <ele>453</ele>
        <time>2026-04-06T13:01:58.000Z</time>
      </trkpt>
      <trkpt lat="42.98813" lon="1.94883">
        <ele>454</ele>
        <time>2026-04-06T13:02:56.000Z</time>
      </trkpt>
      <trkpt lat="42.98821" lon="1.94884">
        <ele>455</ele>
        <time>2026-04-06T13:03:09.000Z</time>
      </trkpt>
      <trkpt lat="42.98827" lon="1.94876">
        <ele>456</ele>
        <time>2026-04-06T13:03:27.000Z</time>
      </trkpt>
      <trkpt lat="42.98835" lon="1.94883">
        <ele>457</ele>
        <time>2026-04-06T13:03:36.000Z</time>
      </trkpt>
      <trkpt lat="42.98845" lon="1.94891">
        <ele>457</ele>
        <time>2026-04-06T13:03:46.000Z</time>
      </trkpt>
      <trkpt lat="42.98851" lon="1.94901">
        <ele>457</ele>
        <time>2026-04-06T13:03:48.000Z</time>
      </trkpt>
      <trkpt lat="42.98857" lon="1.94911">
        <ele>457</ele>
        <time>2026-04-06T13:03:55.000Z</time>
      </trkpt>
      <trkpt lat="42.98864" lon="1.94919">
        <ele>456</ele>
        <time>2026-04-06T13:04:04.000Z</time>
      </trkpt>
      <trkpt lat="42.98874" lon="1.94919">
        <ele>455</ele>
        <time>2026-04-06T13:04:15.000Z</time>
      </trkpt>
      <trkpt lat="42.98883" lon="1.94926">
        <ele>453</ele>
        <time>2026-04-06T13:04:28.000Z</time>
      </trkpt>
      <trkpt lat="42.98892" lon="1.94925">
        <ele>452</ele>
        <time>2026-04-06T13:04:37.000Z</time>
      </trkpt>
      <trkpt lat="42.98902" lon="1.94921">
        <ele>452</ele>
        <time>2026-04-06T13:04:45.000Z</time>
      </trkpt>
      <trkpt lat="42.9891" lon="1.94915">
        <ele>451</ele>
        <time>2026-04-06T13:04:53.000Z</time>
      </trkpt>
      <trkpt lat="42.98918" lon="1.94909">
        <ele>450</ele>
        <time>2026-04-06T13:05:02.000Z</time>
      </trkpt>
      <trkpt lat="42.98926" lon="1.94905">
        <ele>450</ele>
        <time>2026-04-06T13:05:10.000Z</time>
      </trkpt>
      <trkpt lat="42.98935" lon="1.94909">
        <ele>449</ele>
        <time>2026-04-06T13:05:17.000Z</time>
      </trkpt>
      <trkpt lat="42.98945" lon="1.9491">
        <ele>449</ele>
        <time>2026-04-06T13:05:24.000Z</time>
      </trkpt>
      <trkpt lat="42.98955" lon="1.94907">
        <ele>448</ele>
        <time>2026-04-06T13:05:31.000Z</time>
      </trkpt>
      <trkpt lat="42.98964" lon="1.94901">
        <ele>448</ele>
        <time>2026-04-06T13:05:42.000Z</time>
      </trkpt>
      <trkpt lat="42.98974" lon="1.94897">
        <ele>447</ele>
        <time>2026-04-06T13:05:48.000Z</time>
      </trkpt>
      <trkpt lat="42.98985" lon="1.94893">
        <ele>447</ele>
        <time>2026-04-06T13:05:56.000Z</time>
      </trkpt>
      <trkpt lat="42.98994" lon="1.94891">
        <ele>447</ele>
        <time>2026-04-06T13:06:02.000Z</time>
      </trkpt>
      <trkpt lat="42.99002" lon="1.94882">
        <ele>447</ele>
        <time>2026-04-06T13:06:26.000Z</time>
      </trkpt>
      <trkpt lat="42.9901" lon="1.94872">
        <ele>447</ele>
        <time>2026-04-06T13:06:33.000Z</time>
      </trkpt>
      <trkpt lat="42.9902" lon="1.94868">
        <ele>447</ele>
        <time>2026-04-06T13:06:42.000Z</time>
      </trkpt>
      <trkpt lat="42.99029" lon="1.94861">
        <ele>447</ele>
        <time>2026-04-06T13:06:52.000Z</time>
      </trkpt>
      <trkpt lat="42.99036" lon="1.94853">
        <ele>447</ele>
        <time>2026-04-06T13:06:58.000Z</time>
      </trkpt>
      <trkpt lat="42.99041" lon="1.94843">
        <ele>448</ele>
        <time>2026-04-06T13:07:06.000Z</time>
      </trkpt>
      <trkpt lat="42.99046" lon="1.94831">
        <ele>448</ele>
        <time>2026-04-06T13:07:25.000Z</time>
      </trkpt>
      <trkpt lat="42.99051" lon="1.94821">
        <ele>448</ele>
        <time>2026-04-06T13:07:31.000Z</time>
      </trkpt>
      <trkpt lat="42.99058" lon="1.94811">
        <ele>449</ele>
        <time>2026-04-06T13:07:38.000Z</time>
      </trkpt>
      <trkpt lat="42.99066" lon="1.94802">
        <ele>448</ele>
        <time>2026-04-06T13:07:44.000Z</time>
      </trkpt>
      <trkpt lat="42.99072" lon="1.94793">
        <ele>448</ele>
        <time>2026-04-06T13:07:50.000Z</time>
      </trkpt>
      <trkpt lat="42.99074" lon="1.94782">
        <ele>447</ele>
        <time>2026-04-06T13:07:56.000Z</time>
      </trkpt>
      <trkpt lat="42.9908" lon="1.94775">
        <ele>447</ele>
        <time>2026-04-06T13:08:05.000Z</time>
      </trkpt>
      <trkpt lat="42.99089" lon="1.94772">
        <ele>447</ele>
        <time>2026-04-06T13:08:11.000Z</time>
      </trkpt>
      <trkpt lat="42.99099" lon="1.94774">
        <ele>448</ele>
        <time>2026-04-06T13:08:21.000Z</time>
      </trkpt>
      <trkpt lat="42.99109" lon="1.94774">
        <ele>450</ele>
        <time>2026-04-06T13:08:38.000Z</time>
      </trkpt>
      <trkpt lat="42.99117" lon="1.94779">
        <ele>451</ele>
        <time>2026-04-06T13:08:46.000Z</time>
      </trkpt>
      <trkpt lat="42.99122" lon="1.94791">
        <ele>452</ele>
        <time>2026-04-06T13:08:53.000Z</time>
      </trkpt>
      <trkpt lat="42.99119" lon="1.94804">
        <ele>453</ele>
        <time>2026-04-06T13:09:01.000Z</time>
      </trkpt>
      <trkpt lat="42.99118" lon="1.94818">
        <ele>452</ele>
        <time>2026-04-06T13:09:12.000Z</time>
      </trkpt>
      <trkpt lat="42.99121" lon="1.94833">
        <ele>452</ele>
        <time>2026-04-06T13:09:22.000Z</time>
      </trkpt>
      <trkpt lat="42.99122" lon="1.94847">
        <ele>452</ele>
        <time>2026-04-06T13:09:36.000Z</time>
      </trkpt>
      <trkpt lat="42.99125" lon="1.94859">
        <ele>452</ele>
        <time>2026-04-06T13:09:47.000Z</time>
      </trkpt>
      <trkpt lat="42.99126" lon="1.94873">
        <ele>452</ele>
        <time>2026-04-06T13:10:03.000Z</time>
      </trkpt>
      <trkpt lat="42.99125" lon="1.94887">
        <ele>452</ele>
        <time>2026-04-06T13:10:09.000Z</time>
      </trkpt>
      <trkpt lat="42.9912" lon="1.94897">
        <ele>451</ele>
        <time>2026-04-06T13:10:20.000Z</time>
      </trkpt>
      <trkpt lat="42.99114" lon="1.94908">
        <ele>451</ele>
        <time>2026-04-06T13:10:29.000Z</time>
      </trkpt>
      <trkpt lat="42.99111" lon="1.94922">
        <ele>451</ele>
        <time>2026-04-06T13:10:40.000Z</time>
      </trkpt>
      <trkpt lat="42.99106" lon="1.94935">
        <ele>452</ele>
        <time>2026-04-06T13:10:52.000Z</time>
      </trkpt>
      <trkpt lat="42.99106" lon="1.94949">
        <ele>452</ele>
        <time>2026-04-06T13:10:59.000Z</time>
      </trkpt>
      <trkpt lat="42.99112" lon="1.94962">
        <ele>453</ele>
        <time>2026-04-06T13:11:04.000Z</time>
      </trkpt>
      <trkpt lat="42.99116" lon="1.94973">
        <ele>453</ele>
        <time>2026-04-06T13:11:09.000Z</time>
      </trkpt>
      <trkpt lat="42.99115" lon="1.94986">
        <ele>453</ele>
        <time>2026-04-06T13:11:20.000Z</time>
      </trkpt>
      <trkpt lat="42.9911" lon="1.94994">
        <ele>453</ele>
        <time>2026-04-06T13:11:29.000Z</time>
      </trkpt>
      <trkpt lat="42.99101" lon="1.94991">
        <ele>453</ele>
        <time>2026-04-06T13:11:41.000Z</time>
      </trkpt>
      <trkpt lat="42.99091" lon="1.94991">
        <ele>453</ele>
        <time>2026-04-06T13:11:49.000Z</time>
      </trkpt>
      <trkpt lat="42.99082" lon="1.94997">
        <ele>453</ele>
        <time>2026-04-06T13:12:06.000Z</time>
      </trkpt>
      <trkpt lat="42.99076" lon="1.9501">
        <ele>453</ele>
        <time>2026-04-06T13:12:14.000Z</time>
      </trkpt>
      <trkpt lat="42.9907" lon="1.95022">
        <ele>453</ele>
        <time>2026-04-06T13:12:21.000Z</time>
      </trkpt>
      <trkpt lat="42.99064" lon="1.95033">
        <ele>454</ele>
        <time>2026-04-06T13:12:31.000Z</time>
      </trkpt>
      <trkpt lat="42.99058" lon="1.95045">
        <ele>455</ele>
        <time>2026-04-06T13:12:39.000Z</time>
      </trkpt>
      <trkpt lat="42.99053" lon="1.95055">
        <ele>456</ele>
        <time>2026-04-06T13:12:44.000Z</time>
      </trkpt>
      <trkpt lat="42.99049" lon="1.95065">
        <ele>457</ele>
        <time>2026-04-06T13:12:51.000Z</time>
      </trkpt>
      <trkpt lat="42.99047" lon="1.95078">
        <ele>457</ele>
        <time>2026-04-06T13:13:01.000Z</time>
      </trkpt>
      <trkpt lat="42.99047" lon="1.95095">
        <ele>457</ele>
        <time>2026-04-06T13:13:10.000Z</time>
      </trkpt>
      <trkpt lat="42.99043" lon="1.95109">
        <ele>457</ele>
        <time>2026-04-06T13:13:17.000Z</time>
      </trkpt>
      <trkpt lat="42.99041" lon="1.95122">
        <ele>456</ele>
        <time>2026-04-06T13:13:25.000Z</time>
      </trkpt>
      <trkpt lat="42.99041" lon="1.95135">
        <ele>455</ele>
        <time>2026-04-06T13:13:33.000Z</time>
      </trkpt>
      <trkpt lat="42.99043" lon="1.95148">
        <ele>456</ele>
        <time>2026-04-06T13:13:40.000Z</time>
      </trkpt>
      <trkpt lat="42.99046" lon="1.95159">
        <ele>456</ele>
        <time>2026-04-06T13:13:49.000Z</time>
      </trkpt>
      <trkpt lat="42.99048" lon="1.9517">
        <ele>457</ele>
        <time>2026-04-06T13:14:07.000Z</time>
      </trkpt>
      <trkpt lat="42.99047" lon="1.95181">
        <ele>458</ele>
        <time>2026-04-06T13:14:28.000Z</time>
      </trkpt>
      <trkpt lat="42.99053" lon="1.95192">
        <ele>457</ele>
        <time>2026-04-06T13:14:47.000Z</time>
      </trkpt>
      <trkpt lat="42.9906" lon="1.95201">
        <ele>456</ele>
        <time>2026-04-06T13:14:52.000Z</time>
      </trkpt>
      <trkpt lat="42.99066" lon="1.95213">
        <ele>456</ele>
        <time>2026-04-06T13:15:01.000Z</time>
      </trkpt>
      <trkpt lat="42.9907" lon="1.95228">
        <ele>455</ele>
        <time>2026-04-06T13:15:09.000Z</time>
      </trkpt>
      <trkpt lat="42.99076" lon="1.95241">
        <ele>455</ele>
        <time>2026-04-06T13:15:17.000Z</time>
      </trkpt>
      <trkpt lat="42.99082" lon="1.95254">
        <ele>454</ele>
        <time>2026-04-06T13:15:24.000Z</time>
      </trkpt>
      <trkpt lat="42.99087" lon="1.95266">
        <ele>454</ele>
        <time>2026-04-06T13:15:33.000Z</time>
      </trkpt>
      <trkpt lat="42.9909" lon="1.95278">
        <ele>454</ele>
        <time>2026-04-06T13:15:46.000Z</time>
      </trkpt>
      <trkpt lat="42.9909" lon="1.95291">
        <ele>455</ele>
        <time>2026-04-06T13:16:04.000Z</time>
      </trkpt>
      <trkpt lat="42.99089" lon="1.95303">
        <ele>455</ele>
        <time>2026-04-06T13:16:10.000Z</time>
      </trkpt>
      <trkpt lat="42.9909" lon="1.95317">
        <ele>455</ele>
        <time>2026-04-06T13:16:19.000Z</time>
      </trkpt>
      <trkpt lat="42.99092" lon="1.9533">
        <ele>455</ele>
        <time>2026-04-06T13:16:25.000Z</time>
      </trkpt>
      <trkpt lat="42.99092" lon="1.95344">
        <ele>455</ele>
        <time>2026-04-06T13:16:36.000Z</time>
      </trkpt>
      <trkpt lat="42.9909" lon="1.95358">
        <ele>456</ele>
        <time>2026-04-06T13:16:45.000Z</time>
      </trkpt>
      <trkpt lat="42.9909" lon="1.95371">
        <ele>457</ele>
        <time>2026-04-06T13:16:52.000Z</time>
      </trkpt>
      <trkpt lat="42.99086" lon="1.95384">
        <ele>459</ele>
        <time>2026-04-06T13:17:02.000Z</time>
      </trkpt>
      <trkpt lat="42.99084" lon="1.95397">
        <ele>461</ele>
        <time>2026-04-06T13:17:11.000Z</time>
      </trkpt>
      <trkpt lat="42.99081" lon="1.95413">
        <ele>462</ele>
        <time>2026-04-06T13:17:22.000Z</time>
      </trkpt>
      <trkpt lat="42.99081" lon="1.95435">
        <ele>463</ele>
        <time>2026-04-06T13:17:50.000Z</time>
      </trkpt>
      <trkpt lat="42.99079" lon="1.95449">
        <ele>463</ele>
        <time>2026-04-06T13:17:57.000Z</time>
      </trkpt>
      <trkpt lat="42.99075" lon="1.9546">
        <ele>463</ele>
        <time>2026-04-06T13:18:07.000Z</time>
      </trkpt>
      <trkpt lat="42.99069" lon="1.9547">
        <ele>461</ele>
        <time>2026-04-06T13:18:15.000Z</time>
      </trkpt>
      <trkpt lat="42.99062" lon="1.95481">
        <ele>459</ele>
        <time>2026-04-06T13:18:26.000Z</time>
      </trkpt>
      <trkpt lat="42.99055" lon="1.9549">
        <ele>457</ele>
        <time>2026-04-06T13:18:32.000Z</time>
      </trkpt>
      <trkpt lat="42.99051" lon="1.95502">
        <ele>456</ele>
        <time>2026-04-06T13:18:41.000Z</time>
      </trkpt>
      <trkpt lat="42.99051" lon="1.95502">
        <ele>404</ele>
        <time>2026-04-06T13:18:42.000Z</time>
      </trkpt>
      <trkpt lat="42.9905" lon="1.95507">
        <ele>404</ele>
        <time>2026-04-06T13:18:46.000Z</time>
      </trkpt>
      <trkpt lat="42.99059" lon="1.95516">
        <ele>405</ele>
        <time>2026-04-06T13:19:09.000Z</time>
      </trkpt>
      <trkpt lat="42.99092" lon="1.95517">
        <ele>404</ele>
        <time>2026-04-06T13:19:47.000Z</time>
      </trkpt>
      <trkpt lat="42.99111" lon="1.95522">
        <ele>403</ele>
        <time>2026-04-06T13:20:08.000Z</time>
      </trkpt>
      <trkpt lat="42.99123" lon="1.95531">
        <ele>403</ele>
        <time>2026-04-06T13:20:24.000Z</time>
      </trkpt>
      <trkpt lat="42.99136" lon="1.9553">
        <ele>403</ele>
        <time>2026-04-06T13:20:38.000Z</time>
      </trkpt>
      <trkpt lat="42.99151" lon="1.95539">
        <ele>402</ele>
        <time>2026-04-06T13:20:57.000Z</time>
      </trkpt>
      <trkpt lat="42.99174" lon="1.95545">
        <ele>403</ele>
        <time>2026-04-06T13:21:33.000Z</time>
      </trkpt>
      <trkpt lat="42.99185" lon="1.95551">
        <ele>401</ele>
        <time>2026-04-06T13:21:47.000Z</time>
      </trkpt>
      <trkpt lat="42.99213" lon="1.95594">
        <ele>403</ele>
        <time>2026-04-06T13:22:56.000Z</time>
      </trkpt>
      <trkpt lat="42.9923" lon="1.95608">
        <ele>402</ele>
        <time>2026-04-06T13:23:19.000Z</time>
      </trkpt>
      <trkpt lat="42.99256" lon="1.95599">
        <ele>401</ele>
        <time>2026-04-06T13:23:49.000Z</time>
      </trkpt>
      <trkpt lat="42.99267" lon="1.95601">
        <ele>401</ele>
        <time>2026-04-06T13:24:02.000Z</time>
      </trkpt>
      <trkpt lat="42.99364" lon="1.9566">
        <ele>404</ele>
        <time>2026-04-06T13:26:35.000Z</time>
      </trkpt>
      <trkpt lat="42.99373" lon="1.95666">
        <ele>404</ele>
        <time>2026-04-06T13:26:46.000Z</time>
      </trkpt>
      <trkpt lat="42.99379" lon="1.95678">
        <ele>402</ele>
        <time>2026-04-06T13:26:58.000Z</time>
      </trkpt>
      <trkpt lat="42.99416" lon="1.95695">
        <ele>403</ele>
        <time>2026-04-06T13:27:53.000Z</time>
      </trkpt>
      <trkpt lat="42.99416" lon="1.95695">
        <ele>403</ele>
        <time>2026-04-06T13:27:53.000Z</time>
      </trkpt>
      <trkpt lat="42.9941" lon="1.9569">
        <ele>402</ele>
        <time>2026-04-06T13:28:01.000Z</time>
      </trkpt>
      <trkpt lat="42.99379" lon="1.95678">
        <ele>402</ele>
        <time>2026-04-06T13:28:38.000Z</time>
      </trkpt>
      <trkpt lat="42.99373" lon="1.95666">
        <ele>404</ele>
        <time>2026-04-06T13:29:10.000Z</time>
      </trkpt>
      <trkpt lat="42.99364" lon="1.9566">
        <ele>404</ele>
        <time>2026-04-06T13:29:21.000Z</time>
      </trkpt>
      <trkpt lat="42.99267" lon="1.95601">
        <ele>401</ele>
        <time>2026-04-06T13:31:23.000Z</time>
      </trkpt>
      <trkpt lat="42.99256" lon="1.95599">
        <ele>401</ele>
        <time>2026-04-06T13:31:36.000Z</time>
      </trkpt>
      <trkpt lat="42.9923" lon="1.95608">
        <ele>402</ele>
        <time>2026-04-06T13:32:17.000Z</time>
      </trkpt>
      <trkpt lat="42.99213" lon="1.95594">
        <ele>403</ele>
        <time>2026-04-06T13:32:50.000Z</time>
      </trkpt>
      <trkpt lat="42.99185" lon="1.95551">
        <ele>401</ele>
        <time>2026-04-06T13:33:38.000Z</time>
      </trkpt>
      <trkpt lat="42.99174" lon="1.95545">
        <ele>403</ele>
        <time>2026-04-06T13:34:12.000Z</time>
      </trkpt>
      <trkpt lat="42.99151" lon="1.95539">
        <ele>402</ele>
        <time>2026-04-06T13:34:38.000Z</time>
      </trkpt>
      <trkpt lat="42.99136" lon="1.9553">
        <ele>403</ele>
        <time>2026-04-06T13:35:08.000Z</time>
      </trkpt>
      <trkpt lat="42.99123" lon="1.95531">
        <ele>403</ele>
        <time>2026-04-06T13:35:22.000Z</time>
      </trkpt>
      <trkpt lat="42.99111" lon="1.95522">
        <ele>403</ele>
        <time>2026-04-06T13:35:38.000Z</time>
      </trkpt>
      <trkpt lat="42.99092" lon="1.95517">
        <ele>404</ele>
        <time>2026-04-06T13:36:10.000Z</time>
      </trkpt>
      <trkpt lat="42.99059" lon="1.95516">
        <ele>405</ele>
        <time>2026-04-06T13:36:59.000Z</time>
      </trkpt>
      <trkpt lat="42.9905" lon="1.95507">
        <ele>404</ele>
        <time>2026-04-06T13:37:12.000Z</time>
      </trkpt>
      <trkpt lat="42.99048" lon="1.95508">
        <ele>456</ele>
        <time>2026-04-06T13:32:48.000Z</time>
      </trkpt>
      <trkpt lat="42.99047" lon="1.95496">
        <ele>456</ele>
        <time>2026-04-06T13:32:56.000Z</time>
      </trkpt>
      <trkpt lat="42.99051" lon="1.95482">
        <ele>456</ele>
        <time>2026-04-06T13:33:07.000Z</time>
      </trkpt>
      <trkpt lat="42.9906" lon="1.95473">
        <ele>456</ele>
        <time>2026-04-06T13:33:16.000Z</time>
      </trkpt>
      <trkpt lat="42.9907" lon="1.95462">
        <ele>456</ele>
        <time>2026-04-06T13:33:25.000Z</time>
      </trkpt>
      <trkpt lat="42.99075" lon="1.9545">
        <ele>456</ele>
        <time>2026-04-06T13:33:31.000Z</time>
      </trkpt>
      <trkpt lat="42.99078" lon="1.95436">
        <ele>456</ele>
        <time>2026-04-06T13:33:38.000Z</time>
      </trkpt>
      <trkpt lat="42.99082" lon="1.95424">
        <ele>457</ele>
        <time>2026-04-06T13:33:45.000Z</time>
      </trkpt>
      <trkpt lat="42.99088" lon="1.95412">
        <ele>458</ele>
        <time>2026-04-06T13:33:51.000Z</time>
      </trkpt>
      <trkpt lat="42.99093" lon="1.954">
        <ele>459</ele>
        <time>2026-04-06T13:34:01.000Z</time>
      </trkpt>
      <trkpt lat="42.99094" lon="1.95385">
        <ele>460</ele>
        <time>2026-04-06T13:34:13.000Z</time>
      </trkpt>
      <trkpt lat="42.99091" lon="1.95371">
        <ele>461</ele>
        <time>2026-04-06T13:34:21.000Z</time>
      </trkpt>
      <trkpt lat="42.99091" lon="1.95358">
        <ele>461</ele>
        <time>2026-04-06T13:34:28.000Z</time>
      </trkpt>
      <trkpt lat="42.99091" lon="1.95343">
        <ele>460</ele>
        <time>2026-04-06T13:34:36.000Z</time>
      </trkpt>
      <trkpt lat="42.99089" lon="1.95329">
        <ele>459</ele>
        <time>2026-04-06T13:34:44.000Z</time>
      </trkpt>
      <trkpt lat="42.99087" lon="1.95316">
        <ele>458</ele>
        <time>2026-04-06T13:34:52.000Z</time>
      </trkpt>
      <trkpt lat="42.99085" lon="1.95303">
        <ele>457</ele>
        <time>2026-04-06T13:35:02.000Z</time>
      </trkpt>
      <trkpt lat="42.99089" lon="1.95291">
        <ele>457</ele>
        <time>2026-04-06T13:35:15.000Z</time>
      </trkpt>
      <trkpt lat="42.99093" lon="1.9528">
        <ele>457</ele>
        <time>2026-04-06T13:35:27.000Z</time>
      </trkpt>
      <trkpt lat="42.99093" lon="1.95268">
        <ele>457</ele>
        <time>2026-04-06T13:35:35.000Z</time>
      </trkpt>
      <trkpt lat="42.99088" lon="1.95257">
        <ele>458</ele>
        <time>2026-04-06T13:35:42.000Z</time>
      </trkpt>
      <trkpt lat="42.99082" lon="1.95246">
        <ele>458</ele>
        <time>2026-04-06T13:35:49.000Z</time>
      </trkpt>
      <trkpt lat="42.99078" lon="1.95233">
        <ele>458</ele>
        <time>2026-04-06T13:35:57.000Z</time>
      </trkpt>
      <trkpt lat="42.99074" lon="1.9522">
        <ele>458</ele>
        <time>2026-04-06T13:36:06.000Z</time>
      </trkpt>
      <trkpt lat="42.99071" lon="1.95209">
        <ele>457</ele>
        <time>2026-04-06T13:36:13.000Z</time>
      </trkpt>
      <trkpt lat="42.99065" lon="1.952">
        <ele>457</ele>
        <time>2026-04-06T13:36:19.000Z</time>
      </trkpt>
      <trkpt lat="42.99057" lon="1.95192">
        <ele>456</ele>
        <time>2026-04-06T13:36:30.000Z</time>
      </trkpt>
      <trkpt lat="42.99047" lon="1.95187">
        <ele>456</ele>
        <time>2026-04-06T13:36:40.000Z</time>
      </trkpt>
      <trkpt lat="42.99043" lon="1.95174">
        <ele>455</ele>
        <time>2026-04-06T13:37:00.000Z</time>
      </trkpt>
      <trkpt lat="42.99042" lon="1.95159">
        <ele>455</ele>
        <time>2026-04-06T13:37:08.000Z</time>
      </trkpt>
      <trkpt lat="42.99039" lon="1.95146">
        <ele>454</ele>
        <time>2026-04-06T13:37:16.000Z</time>
      </trkpt>
      <trkpt lat="42.99041" lon="1.95133">
        <ele>454</ele>
        <time>2026-04-06T13:37:25.000Z</time>
      </trkpt>
      <trkpt lat="42.99042" lon="1.95121">
        <ele>453</ele>
        <time>2026-04-06T13:37:30.000Z</time>
      </trkpt>
      <trkpt lat="42.99044" lon="1.95109">
        <ele>453</ele>
        <time>2026-04-06T13:37:36.000Z</time>
      </trkpt>
      <trkpt lat="42.99046" lon="1.95097">
        <ele>452</ele>
        <time>2026-04-06T13:37:45.000Z</time>
      </trkpt>
      <trkpt lat="42.99049" lon="1.95086">
        <ele>452</ele>
        <time>2026-04-06T13:37:52.000Z</time>
      </trkpt>
      <trkpt lat="42.99051" lon="1.95072">
        <ele>452</ele>
        <time>2026-04-06T13:38:00.000Z</time>
      </trkpt>
      <trkpt lat="42.99052" lon="1.95058">
        <ele>452</ele>
        <time>2026-04-06T13:38:08.000Z</time>
      </trkpt>
      <trkpt lat="42.99054" lon="1.95045">
        <ele>452</ele>
        <time>2026-04-06T13:38:14.000Z</time>
      </trkpt>
      <trkpt lat="42.9906" lon="1.95036">
        <ele>452</ele>
        <time>2026-04-06T13:38:21.000Z</time>
      </trkpt>
      <trkpt lat="42.99068" lon="1.95028">
        <ele>452</ele>
        <time>2026-04-06T13:38:30.000Z</time>
      </trkpt>
      <trkpt lat="42.99073" lon="1.95015">
        <ele>451</ele>
        <time>2026-04-06T13:38:39.000Z</time>
      </trkpt>
      <trkpt lat="42.99079" lon="1.95004">
        <ele>451</ele>
        <time>2026-04-06T13:38:47.000Z</time>
      </trkpt>
      <trkpt lat="42.99087" lon="1.94997">
        <ele>450</ele>
        <time>2026-04-06T13:38:58.000Z</time>
      </trkpt>
      <trkpt lat="42.99095" lon="1.95001">
        <ele>449</ele>
        <time>2026-04-06T13:39:07.000Z</time>
      </trkpt>
      <trkpt lat="42.99103" lon="1.95001">
        <ele>449</ele>
        <time>2026-04-06T13:39:24.000Z</time>
      </trkpt>
      <trkpt lat="42.99111" lon="1.94995">
        <ele>450</ele>
        <time>2026-04-06T13:39:33.000Z</time>
      </trkpt>
      <trkpt lat="42.99115" lon="1.94983">
        <ele>451</ele>
        <time>2026-04-06T13:39:40.000Z</time>
      </trkpt>
      <trkpt lat="42.99115" lon="1.9497">
        <ele>451</ele>
        <time>2026-04-06T13:39:46.000Z</time>
      </trkpt>
      <trkpt lat="42.9911" lon="1.94957">
        <ele>451</ele>
        <time>2026-04-06T13:39:53.000Z</time>
      </trkpt>
      <trkpt lat="42.99107" lon="1.94944">
        <ele>450</ele>
        <time>2026-04-06T13:40:02.000Z</time>
      </trkpt>
      <trkpt lat="42.99104" lon="1.94932">
        <ele>449</ele>
        <time>2026-04-06T13:40:10.000Z</time>
      </trkpt>
      <trkpt lat="42.99107" lon="1.94919">
        <ele>449</ele>
        <time>2026-04-06T13:40:18.000Z</time>
      </trkpt>
      <trkpt lat="42.99114" lon="1.94908">
        <ele>449</ele>
        <time>2026-04-06T13:40:26.000Z</time>
      </trkpt>
      <trkpt lat="42.99123" lon="1.949">
        <ele>450</ele>
        <time>2026-04-06T13:40:34.000Z</time>
      </trkpt>
      <trkpt lat="42.99129" lon="1.94888">
        <ele>450</ele>
        <time>2026-04-06T13:40:41.000Z</time>
      </trkpt>
      <trkpt lat="42.99131" lon="1.94874">
        <ele>450</ele>
        <time>2026-04-06T13:40:57.000Z</time>
      </trkpt>
      <trkpt lat="42.99127" lon="1.9486">
        <ele>450</ele>
        <time>2026-04-06T13:41:07.000Z</time>
      </trkpt>
      <trkpt lat="42.99123" lon="1.94849">
        <ele>450</ele>
        <time>2026-04-06T13:41:20.000Z</time>
      </trkpt>
      <trkpt lat="42.99121" lon="1.94835">
        <ele>450</ele>
        <time>2026-04-06T13:41:30.000Z</time>
      </trkpt>
      <trkpt lat="42.99122" lon="1.94823">
        <ele>451</ele>
        <time>2026-04-06T13:41:39.000Z</time>
      </trkpt>
      <trkpt lat="42.99121" lon="1.94811">
        <ele>453</ele>
        <time>2026-04-06T13:41:45.000Z</time>
      </trkpt>
      <trkpt lat="42.99119" lon="1.94797">
        <ele>454</ele>
        <time>2026-04-06T13:41:52.000Z</time>
      </trkpt>
      <trkpt lat="42.9912" lon="1.94784">
        <ele>455</ele>
        <time>2026-04-06T13:41:58.000Z</time>
      </trkpt>
      <trkpt lat="42.99112" lon="1.94773">
        <ele>455</ele>
        <time>2026-04-06T13:42:17.000Z</time>
      </trkpt>
      <trkpt lat="42.99104" lon="1.94768">
        <ele>455</ele>
        <time>2026-04-06T13:42:21.000Z</time>
      </trkpt>
      <trkpt lat="42.99095" lon="1.94765">
        <ele>455</ele>
        <time>2026-04-06T13:42:37.000Z</time>
      </trkpt>
      <trkpt lat="42.99085" lon="1.94766">
        <ele>455</ele>
        <time>2026-04-06T13:42:44.000Z</time>
      </trkpt>
      <trkpt lat="42.99075" lon="1.94773">
        <ele>455</ele>
        <time>2026-04-06T13:42:53.000Z</time>
      </trkpt>
      <trkpt lat="42.99067" lon="1.94782">
        <ele>454</ele>
        <time>2026-04-06T13:43:01.000Z</time>
      </trkpt>
      <trkpt lat="42.99059" lon="1.94791">
        <ele>454</ele>
        <time>2026-04-06T13:43:09.000Z</time>
      </trkpt>
      <trkpt lat="42.99057" lon="1.94803">
        <ele>454</ele>
        <time>2026-04-06T13:43:17.000Z</time>
      </trkpt>
      <trkpt lat="42.99055" lon="1.94815">
        <ele>454</ele>
        <time>2026-04-06T13:43:24.000Z</time>
      </trkpt>
      <trkpt lat="42.99052" lon="1.94828">
        <ele>453</ele>
        <time>2026-04-06T13:43:33.000Z</time>
      </trkpt>
      <trkpt lat="42.99045" lon="1.94839">
        <ele>453</ele>
        <time>2026-04-06T13:43:43.000Z</time>
      </trkpt>
      <trkpt lat="42.9904" lon="1.9485">
        <ele>453</ele>
        <time>2026-04-06T13:43:50.000Z</time>
      </trkpt>
      <trkpt lat="42.99033" lon="1.94859">
        <ele>452</ele>
        <time>2026-04-06T13:44:01.000Z</time>
      </trkpt>
      <trkpt lat="42.99023" lon="1.94864">
        <ele>452</ele>
        <time>2026-04-06T13:44:12.000Z</time>
      </trkpt>
      <trkpt lat="42.99013" lon="1.94867">
        <ele>453</ele>
        <time>2026-04-06T13:44:22.000Z</time>
      </trkpt>
      <trkpt lat="42.99004" lon="1.94872">
        <ele>454</ele>
        <time>2026-04-06T13:44:29.000Z</time>
      </trkpt>
      <trkpt lat="42.98997" lon="1.9488">
        <ele>456</ele>
        <time>2026-04-06T13:44:45.000Z</time>
      </trkpt>
      <trkpt lat="42.98987" lon="1.94886">
        <ele>456</ele>
        <time>2026-04-06T13:45:04.000Z</time>
      </trkpt>
      <trkpt lat="42.98979" lon="1.94893">
        <ele>457</ele>
        <time>2026-04-06T13:45:12.000Z</time>
      </trkpt>
      <trkpt lat="42.98969" lon="1.94897">
        <ele>457</ele>
        <time>2026-04-06T13:45:23.000Z</time>
      </trkpt>
      <trkpt lat="42.98958" lon="1.94898">
        <ele>457</ele>
        <time>2026-04-06T13:45:30.000Z</time>
      </trkpt>
      <trkpt lat="42.98949" lon="1.94899">
        <ele>457</ele>
        <time>2026-04-06T13:45:37.000Z</time>
      </trkpt>
      <trkpt lat="42.9894" lon="1.94899">
        <ele>457</ele>
        <time>2026-04-06T13:45:48.000Z</time>
      </trkpt>
      <trkpt lat="42.98931" lon="1.94899">
        <ele>457</ele>
        <time>2026-04-06T13:45:57.000Z</time>
      </trkpt>
      <trkpt lat="42.98921" lon="1.94903">
        <ele>456</ele>
        <time>2026-04-06T13:46:06.000Z</time>
      </trkpt>
      <trkpt lat="42.98912" lon="1.9491">
        <ele>456</ele>
        <time>2026-04-06T13:46:12.000Z</time>
      </trkpt>
      <trkpt lat="42.98904" lon="1.94918">
        <ele>455</ele>
        <time>2026-04-06T13:46:21.000Z</time>
      </trkpt>
      <trkpt lat="42.98894" lon="1.94926">
        <ele>454</ele>
        <time>2026-04-06T13:46:38.000Z</time>
      </trkpt>
      <trkpt lat="42.98885" lon="1.94925">
        <ele>453</ele>
        <time>2026-04-06T13:46:45.000Z</time>
      </trkpt>
      <trkpt lat="42.98876" lon="1.94918">
        <ele>452</ele>
        <time>2026-04-06T13:46:54.000Z</time>
      </trkpt>
      <trkpt lat="42.98866" lon="1.94915">
        <ele>452</ele>
        <time>2026-04-06T13:47:03.000Z</time>
      </trkpt>
      <trkpt lat="42.98858" lon="1.94907">
        <ele>453</ele>
        <time>2026-04-06T13:47:11.000Z</time>
      </trkpt>
      <trkpt lat="42.98853" lon="1.94898">
        <ele>454</ele>
        <time>2026-04-06T13:47:24.000Z</time>
      </trkpt>
      <trkpt lat="42.98847" lon="1.94888">
        <ele>455</ele>
        <time>2026-04-06T13:47:33.000Z</time>
      </trkpt>
      <trkpt lat="42.98838" lon="1.9488">
        <ele>457</ele>
        <time>2026-04-06T13:47:39.000Z</time>
      </trkpt>
      <trkpt lat="42.9883" lon="1.94875">
        <ele>458</ele>
        <time>2026-04-06T13:47:49.000Z</time>
      </trkpt>
      <trkpt lat="42.98821" lon="1.94874">
        <ele>459</ele>
        <time>2026-04-06T13:48:04.000Z</time>
      </trkpt>
      <trkpt lat="42.98812" lon="1.94875">
        <ele>459</ele>
        <time>2026-04-06T13:48:43.000Z</time>
      </trkpt>
      <trkpt lat="42.988" lon="1.94886">
        <ele>459</ele>
        <time>2026-04-06T13:49:23.000Z</time>
      </trkpt>
      <trkpt lat="42.98792" lon="1.94896">
        <ele>458</ele>
        <time>2026-04-06T13:49:28.000Z</time>
      </trkpt>
      <trkpt lat="42.98785" lon="1.94903">
        <ele>458</ele>
        <time>2026-04-06T13:49:34.000Z</time>
      </trkpt>
      <trkpt lat="42.98777" lon="1.94911">
        <ele>458</ele>
        <time>2026-04-06T13:49:52.000Z</time>
      </trkpt>
      <trkpt lat="42.98776" lon="1.94923">
        <ele>458</ele>
        <time>2026-04-06T13:50:01.000Z</time>
      </trkpt>
      <trkpt lat="42.98778" lon="1.94935">
        <ele>458</ele>
        <time>2026-04-06T13:50:10.000Z</time>
      </trkpt>
      <trkpt lat="42.98783" lon="1.94948">
        <ele>457</ele>
        <time>2026-04-06T13:50:19.000Z</time>
      </trkpt>
      <trkpt lat="42.98783" lon="1.94963">
        <ele>456</ele>
        <time>2026-04-06T13:50:27.000Z</time>
      </trkpt>
      <trkpt lat="42.9878" lon="1.94976">
        <ele>456</ele>
        <time>2026-04-06T13:50:37.000Z</time>
      </trkpt>
      <trkpt lat="42.98774" lon="1.94989">
        <ele>455</ele>
        <time>2026-04-06T13:50:45.000Z</time>
      </trkpt>
      <trkpt lat="42.98774" lon="1.95002">
        <ele>456</ele>
        <time>2026-04-06T13:50:52.000Z</time>
      </trkpt>
      <trkpt lat="42.9878" lon="1.9501">
        <ele>457</ele>
        <time>2026-04-06T13:51:00.000Z</time>
      </trkpt>
      <trkpt lat="42.98774" lon="1.95017">
        <ele>458</ele>
        <time>2026-04-06T13:53:40.000Z</time>
      </trkpt>
      <trkpt lat="42.9877" lon="1.95028">
        <ele>459</ele>
        <time>2026-04-06T13:53:58.000Z</time>
      </trkpt>
      <trkpt lat="42.98766" lon="1.95041">
        <ele>459</ele>
        <time>2026-04-06T13:54:19.000Z</time>
      </trkpt>
      <trkpt lat="42.98757" lon="1.95059">
        <ele>459</ele>
        <time>2026-04-06T13:54:31.000Z</time>
      </trkpt>
      <trkpt lat="42.98751" lon="1.95073">
        <ele>459</ele>
        <time>2026-04-06T13:54:40.000Z</time>
      </trkpt>
      <trkpt lat="42.98743" lon="1.9509">
        <ele>459</ele>
        <time>2026-04-06T13:54:57.000Z</time>
      </trkpt>
      <trkpt lat="42.98733" lon="1.95101">
        <ele>459</ele>
        <time>2026-04-06T13:55:07.000Z</time>
      </trkpt>
      <trkpt lat="42.98725" lon="1.95111">
        <ele>460</ele>
        <time>2026-04-06T13:55:14.000Z</time>
      </trkpt>
      <trkpt lat="42.98716" lon="1.95118">
        <ele>459</ele>
        <time>2026-04-06T13:55:23.000Z</time>
      </trkpt>
      <trkpt lat="42.98708" lon="1.95127">
        <ele>459</ele>
        <time>2026-04-06T13:55:32.000Z</time>
      </trkpt>
      <trkpt lat="42.98701" lon="1.95137">
        <ele>457</ele>
        <time>2026-04-06T13:55:38.000Z</time>
      </trkpt>
      <trkpt lat="42.98695" lon="1.95142">
        <ele>455</ele>
        <time>2026-04-06T13:55:45.000Z</time>
      </trkpt>
      <trkpt lat="42.98699" lon="1.95142">
        <ele>456</ele>
        <time>2026-04-06T13:56:43.000Z</time>
      </trkpt>
      <trkpt lat="42.98695" lon="1.95154">
        <ele>455</ele>
        <time>2026-04-06T13:56:58.000Z</time>
      </trkpt>
      <trkpt lat="42.98689" lon="1.95165">
        <ele>454</ele>
        <time>2026-04-06T13:57:07.000Z</time>
      </trkpt>
      <trkpt lat="42.98682" lon="1.95175">
        <ele>454</ele>
        <time>2026-04-06T13:57:14.000Z</time>
      </trkpt>
      <trkpt lat="42.98674" lon="1.95185">
        <ele>453</ele>
        <time>2026-04-06T13:57:22.000Z</time>
      </trkpt>
      <trkpt lat="42.98666" lon="1.95195">
        <ele>452</ele>
        <time>2026-04-06T13:57:31.000Z</time>
      </trkpt>
      <trkpt lat="42.98661" lon="1.95206">
        <ele>451</ele>
        <time>2026-04-06T13:57:40.000Z</time>
      </trkpt>
      <trkpt lat="42.98657" lon="1.95217">
        <ele>450</ele>
        <time>2026-04-06T13:57:47.000Z</time>
      </trkpt>
      <trkpt lat="42.98651" lon="1.95225">
        <ele>450</ele>
        <time>2026-04-06T13:57:53.000Z</time>
      </trkpt>
      <trkpt lat="42.98646" lon="1.95235">
        <ele>451</ele>
        <time>2026-04-06T13:58:02.000Z</time>
      </trkpt>
      <trkpt lat="42.98642" lon="1.95247">
        <ele>452</ele>
        <time>2026-04-06T13:58:11.000Z</time>
      </trkpt>
      <trkpt lat="42.98636" lon="1.95259">
        <ele>454</ele>
        <time>2026-04-06T13:58:22.000Z</time>
      </trkpt>
      <trkpt lat="42.98631" lon="1.9527">
        <ele>455</ele>
        <time>2026-04-06T13:58:30.000Z</time>
      </trkpt>
      <trkpt lat="42.98632" lon="1.95285">
        <ele>455</ele>
        <time>2026-04-06T13:58:38.000Z</time>
      </trkpt>
      <trkpt lat="42.98632" lon="1.95298">
        <ele>455</ele>
        <time>2026-04-06T13:58:44.000Z</time>
      </trkpt>
      <trkpt lat="42.98627" lon="1.95312">
        <ele>455</ele>
        <time>2026-04-06T13:58:51.000Z</time>
      </trkpt>
      <trkpt lat="42.98623" lon="1.95324">
        <ele>456</ele>
        <time>2026-04-06T13:59:00.000Z</time>
      </trkpt>
      <trkpt lat="42.98622" lon="1.95338">
        <ele>456</ele>
        <time>2026-04-06T13:59:11.000Z</time>
      </trkpt>
      <trkpt lat="42.98619" lon="1.95351">
        <ele>455</ele>
        <time>2026-04-06T13:59:19.000Z</time>
      </trkpt>
      <trkpt lat="42.9862" lon="1.95364">
        <ele>455</ele>
        <time>2026-04-06T13:59:26.000Z</time>
      </trkpt>
      <trkpt lat="42.9862" lon="1.95377">
        <ele>455</ele>
        <time>2026-04-06T13:59:35.000Z</time>
      </trkpt>
      <trkpt lat="42.98616" lon="1.9539">
        <ele>455</ele>
        <time>2026-04-06T13:59:42.000Z</time>
      </trkpt>
      <trkpt lat="42.98612" lon="1.95401">
        <ele>457</ele>
        <time>2026-04-06T13:59:48.000Z</time>
      </trkpt>
      <trkpt lat="42.9861" lon="1.95414">
        <ele>459</ele>
        <time>2026-04-06T13:59:55.000Z</time>
      </trkpt>
      <trkpt lat="42.9861" lon="1.95429">
        <ele>461</ele>
        <time>2026-04-06T14:00:05.000Z</time>
      </trkpt>
      <trkpt lat="42.98608" lon="1.95444">
        <ele>462</ele>
        <time>2026-04-06T14:00:12.000Z</time>
      </trkpt>
      <trkpt lat="42.98606" lon="1.95456">
        <ele>463</ele>
        <time>2026-04-06T14:00:17.000Z</time>
      </trkpt>
      <trkpt lat="42.98603" lon="1.95467">
        <ele>463</ele>
        <time>2026-04-06T14:00:24.000Z</time>
      </trkpt>
      <trkpt lat="42.98595" lon="1.95473">
        <ele>463</ele>
        <time>2026-04-06T14:00:35.000Z</time>
      </trkpt>
      <trkpt lat="42.98584" lon="1.9547">
        <ele>463</ele>
        <time>2026-04-06T14:00:46.000Z</time>
      </trkpt>
      <trkpt lat="42.98575" lon="1.95464">
        <ele>462</ele>
        <time>2026-04-06T14:00:53.000Z</time>
      </trkpt>
      <trkpt lat="42.98567" lon="1.95459">
        <ele>462</ele>
        <time>2026-04-06T14:01:01.000Z</time>
      </trkpt>
      <trkpt lat="42.98558" lon="1.95461">
        <ele>462</ele>
        <time>2026-04-06T14:01:09.000Z</time>
      </trkpt>
      <trkpt lat="42.98549" lon="1.95461">
        <ele>461</ele>
        <time>2026-04-06T14:01:16.000Z</time>
      </trkpt>
      <trkpt lat="42.98539" lon="1.95464">
        <ele>461</ele>
        <time>2026-04-06T14:01:27.000Z</time>
      </trkpt>
      <trkpt lat="42.9853" lon="1.95469">
        <ele>460</ele>
        <time>2026-04-06T14:01:34.000Z</time>
      </trkpt>
      <trkpt lat="42.98521" lon="1.9547">
        <ele>459</ele>
        <time>2026-04-06T14:01:43.000Z</time>
      </trkpt>
      <trkpt lat="42.98512" lon="1.95473">
        <ele>458</ele>
        <time>2026-04-06T14:01:52.000Z</time>
      </trkpt>
      <trkpt lat="42.98503" lon="1.95479">
        <ele>458</ele>
        <time>2026-04-06T14:02:01.000Z</time>
      </trkpt>
      <trkpt lat="42.98493" lon="1.95479">
        <ele>457</ele>
        <time>2026-04-06T14:02:20.000Z</time>
      </trkpt>
      <trkpt lat="42.98483" lon="1.95479">
        <ele>456</ele>
        <time>2026-04-06T14:02:27.000Z</time>
      </trkpt>
      <trkpt lat="42.98474" lon="1.95476">
        <ele>456</ele>
        <time>2026-04-06T14:02:34.000Z</time>
      </trkpt>
      <trkpt lat="42.98467" lon="1.95465">
        <ele>456</ele>
        <time>2026-04-06T14:02:47.000Z</time>
      </trkpt>
      <trkpt lat="42.98464" lon="1.95453">
        <ele>456</ele>
        <time>2026-04-06T14:02:54.000Z</time>
      </trkpt>
      <trkpt lat="42.98462" lon="1.95439">
        <ele>456</ele>
        <time>2026-04-06T14:03:05.000Z</time>
      </trkpt>
      <trkpt lat="42.98461" lon="1.95426">
        <ele>456</ele>
        <time>2026-04-06T14:03:17.000Z</time>
      </trkpt>
      <trkpt lat="42.98464" lon="1.95414">
        <ele>457</ele>
        <time>2026-04-06T14:03:24.000Z</time>
      </trkpt>
      <trkpt lat="42.98467" lon="1.95402">
        <ele>458</ele>
        <time>2026-04-06T14:03:33.000Z</time>
      </trkpt>
      <trkpt lat="42.98472" lon="1.95391">
        <ele>459</ele>
        <time>2026-04-06T14:03:42.000Z</time>
      </trkpt>
      <trkpt lat="42.98475" lon="1.95378">
        <ele>460</ele>
        <time>2026-04-06T14:03:49.000Z</time>
      </trkpt>
      <trkpt lat="42.98474" lon="1.95366">
        <ele>460</ele>
        <time>2026-04-06T14:03:55.000Z</time>
      </trkpt>
      <trkpt lat="42.98477" lon="1.95355">
        <ele>460</ele>
        <time>2026-04-06T14:04:04.000Z</time>
      </trkpt>
      <trkpt lat="42.98476" lon="1.95341">
        <ele>460</ele>
        <time>2026-04-06T14:04:14.000Z</time>
      </trkpt>
      <trkpt lat="42.98477" lon="1.95326">
        <ele>459</ele>
        <time>2026-04-06T14:04:25.000Z</time>
      </trkpt>
      <trkpt lat="42.9848" lon="1.95314">
        <ele>458</ele>
        <time>2026-04-06T14:04:33.000Z</time>
      </trkpt>
      <trkpt lat="42.98482" lon="1.95301">
        <ele>458</ele>
        <time>2026-04-06T14:04:40.000Z</time>
      </trkpt>
      <trkpt lat="42.9848" lon="1.95287">
        <ele>457</ele>
        <time>2026-04-06T14:04:48.000Z</time>
      </trkpt>
      <trkpt lat="42.98481" lon="1.95275">
        <ele>456</ele>
        <time>2026-04-06T14:04:57.000Z</time>
      </trkpt>
      <trkpt lat="42.98482" lon="1.95262">
        <ele>456</ele>
        <time>2026-04-06T14:05:08.000Z</time>
      </trkpt>
      <trkpt lat="42.9848" lon="1.9525">
        <ele>455</ele>
        <time>2026-04-06T14:05:27.000Z</time>
      </trkpt>
      <trkpt lat="42.98482" lon="1.95236">
        <ele>454</ele>
        <time>2026-04-06T14:05:45.000Z</time>
      </trkpt>
      <trkpt lat="42.98484" lon="1.95223">
        <ele>454</ele>
        <time>2026-04-06T14:05:58.000Z</time>
      </trkpt>
      <trkpt lat="42.98486" lon="1.95211">
        <ele>454</ele>
        <time>2026-04-06T14:06:06.000Z</time>
      </trkpt>
      <trkpt lat="42.98487" lon="1.95199">
        <ele>454</ele>
        <time>2026-04-06T14:06:22.000Z</time>
      </trkpt>
      <trkpt lat="42.98489" lon="1.95187">
        <ele>455</ele>
        <time>2026-04-06T14:06:28.000Z</time>
      </trkpt>
      <trkpt lat="42.98493" lon="1.95174">
        <ele>457</ele>
        <time>2026-04-06T14:06:53.000Z</time>
      </trkpt>
      <trkpt lat="42.98497" lon="1.95162">
        <ele>459</ele>
        <time>2026-04-06T14:07:02.000Z</time>
      </trkpt>
      <trkpt lat="42.98499" lon="1.95149">
        <ele>460</ele>
        <time>2026-04-06T14:07:12.000Z</time>
      </trkpt>
      <trkpt lat="42.985" lon="1.95134">
        <ele>462</ele>
        <time>2026-04-06T14:07:23.000Z</time>
      </trkpt>
      <trkpt lat="42.98499" lon="1.95121">
        <ele>463</ele>
        <time>2026-04-06T14:07:32.000Z</time>
      </trkpt>
      <trkpt lat="42.98493" lon="1.95108">
        <ele>464</ele>
        <time>2026-04-06T14:07:48.000Z</time>
      </trkpt>
      <trkpt lat="42.98494" lon="1.95096">
        <ele>464</ele>
        <time>2026-04-06T14:08:01.000Z</time>
      </trkpt>
      <trkpt lat="42.98491" lon="1.95084">
        <ele>464</ele>
        <time>2026-04-06T14:08:11.000Z</time>
      </trkpt>
      <trkpt lat="42.98487" lon="1.95074">
        <ele>463</ele>
        <time>2026-04-06T14:08:17.000Z</time>
      </trkpt>
      <trkpt lat="42.98484" lon="1.95063">
        <ele>462</ele>
        <time>2026-04-06T14:08:27.000Z</time>
      </trkpt>
      <trkpt lat="42.9848" lon="1.9505">
        <ele>462</ele>
        <time>2026-04-06T14:08:36.000Z</time>
      </trkpt>
      <trkpt lat="42.98481" lon="1.95036">
        <ele>462</ele>
        <time>2026-04-06T14:08:45.000Z</time>
      </trkpt>
      <trkpt lat="42.98481" lon="1.95022">
        <ele>461</ele>
        <time>2026-04-06T14:08:54.000Z</time>
      </trkpt>
      <trkpt lat="42.9848" lon="1.9501">
        <ele>461</ele>
        <time>2026-04-06T14:09:00.000Z</time>
      </trkpt>
      <trkpt lat="42.9848" lon="1.94997">
        <ele>461</ele>
        <time>2026-04-06T14:09:09.000Z</time>
      </trkpt>
      <trkpt lat="42.98484" lon="1.94984">
        <ele>460</ele>
        <time>2026-04-06T14:09:19.000Z</time>
      </trkpt>
      <trkpt lat="42.98485" lon="1.94969">
        <ele>460</ele>
        <time>2026-04-06T14:09:30.000Z</time>
      </trkpt>
      <trkpt lat="42.98483" lon="1.94955">
        <ele>460</ele>
        <time>2026-04-06T14:09:37.000Z</time>
      </trkpt>
      <trkpt lat="42.98481" lon="1.94943">
        <ele>461</ele>
        <time>2026-04-06T14:09:45.000Z</time>
      </trkpt>
      <trkpt lat="42.98483" lon="1.9493">
        <ele>461</ele>
        <time>2026-04-06T14:09:52.000Z</time>
      </trkpt>
      <trkpt lat="42.98484" lon="1.94917">
        <ele>461</ele>
        <time>2026-04-06T14:10:01.000Z</time>
      </trkpt>
      <trkpt lat="42.98484" lon="1.94904">
        <ele>460</ele>
        <time>2026-04-06T14:10:08.000Z</time>
      </trkpt>
      <trkpt lat="42.98485" lon="1.94891">
        <ele>459</ele>
        <time>2026-04-06T14:10:16.000Z</time>
      </trkpt>
      <trkpt lat="42.98486" lon="1.94878">
        <ele>458</ele>
        <time>2026-04-06T14:10:27.000Z</time>
      </trkpt>
      <trkpt lat="42.98489" lon="1.94867">
        <ele>457</ele>
        <time>2026-04-06T14:10:35.000Z</time>
      </trkpt>
      <trkpt lat="42.98491" lon="1.94855">
        <ele>457</ele>
        <time>2026-04-06T14:10:50.000Z</time>
      </trkpt>
      <trkpt lat="42.98492" lon="1.94841">
        <ele>457</ele>
        <time>2026-04-06T14:11:03.000Z</time>
      </trkpt>
      <trkpt lat="42.98493" lon="1.94823">
        <ele>456</ele>
        <time>2026-04-06T14:11:57.000Z</time>
      </trkpt>
      <trkpt lat="42.98492" lon="1.94808">
        <ele>456</ele>
        <time>2026-04-06T14:12:08.000Z</time>
      </trkpt>
      <trkpt lat="42.98494" lon="1.94795">
        <ele>456</ele>
        <time>2026-04-06T14:12:15.000Z</time>
      </trkpt>
      <trkpt lat="42.98497" lon="1.94783">
        <ele>457</ele>
        <time>2026-04-06T14:12:27.000Z</time>
      </trkpt>
      <trkpt lat="42.98499" lon="1.94771">
        <ele>457</ele>
        <time>2026-04-06T14:12:34.000Z</time>
      </trkpt>
      <trkpt lat="42.985" lon="1.94758">
        <ele>458</ele>
        <time>2026-04-06T14:12:49.000Z</time>
      </trkpt>
      <trkpt lat="42.98502" lon="1.94743">
        <ele>458</ele>
        <time>2026-04-06T14:12:57.000Z</time>
      </trkpt>
      <trkpt lat="42.98504" lon="1.9473">
        <ele>457</ele>
        <time>2026-04-06T14:13:11.000Z</time>
      </trkpt>
      <trkpt lat="42.98505" lon="1.94718">
        <ele>456</ele>
        <time>2026-04-06T14:13:20.000Z</time>
      </trkpt>
      <trkpt lat="42.985" lon="1.94708">
        <ele>455</ele>
        <time>2026-04-06T14:13:27.000Z</time>
      </trkpt>
      <trkpt lat="42.98498" lon="1.94695">
        <ele>455</ele>
        <time>2026-04-06T14:13:35.000Z</time>
      </trkpt>
      <trkpt lat="42.98497" lon="1.94683">
        <ele>455</ele>
        <time>2026-04-06T14:13:45.000Z</time>
      </trkpt>
      <trkpt lat="42.98502" lon="1.9467">
        <ele>455</ele>
        <time>2026-04-06T14:13:59.000Z</time>
      </trkpt>
      <trkpt lat="42.98509" lon="1.9466">
        <ele>455</ele>
        <time>2026-04-06T14:14:08.000Z</time>
      </trkpt>
      <trkpt lat="42.98514" lon="1.94649">
        <ele>456</ele>
        <time>2026-04-06T14:14:18.000Z</time>
      </trkpt>
      <trkpt lat="42.98512" lon="1.94637">
        <ele>457</ele>
        <time>2026-04-06T14:14:24.000Z</time>
      </trkpt>
      <trkpt lat="42.98511" lon="1.94625">
        <ele>458</ele>
        <time>2026-04-06T14:14:33.000Z</time>
      </trkpt>
      <trkpt lat="42.98512" lon="1.94611">
        <ele>458</ele>
        <time>2026-04-06T14:14:43.000Z</time>
      </trkpt>
      <trkpt lat="42.98513" lon="1.94597">
        <ele>459</ele>
        <time>2026-04-06T14:14:54.000Z</time>
      </trkpt>
      <trkpt lat="42.98518" lon="1.94585">
        <ele>460</ele>
        <time>2026-04-06T14:15:03.000Z</time>
      </trkpt>
      <trkpt lat="42.98522" lon="1.94573">
        <ele>460</ele>
        <time>2026-04-06T14:15:19.000Z</time>
      </trkpt>
      <trkpt lat="42.98528" lon="1.94563">
        <ele>461</ele>
        <time>2026-04-06T14:15:27.000Z</time>
      </trkpt>
      <trkpt lat="42.9853" lon="1.94552">
        <ele>461</ele>
        <time>2026-04-06T14:16:06.000Z</time>
      </trkpt>
      <trkpt lat="42.9853" lon="1.94539">
        <ele>462</ele>
        <time>2026-04-06T14:16:26.000Z</time>
      </trkpt>
      <trkpt lat="42.98537" lon="1.94528">
        <ele>463</ele>
        <time>2026-04-06T14:16:33.000Z</time>
      </trkpt>
      <trkpt lat="42.98542" lon="1.94516">
        <ele>464</ele>
        <time>2026-04-06T14:16:40.000Z</time>
      </trkpt>
      <trkpt lat="42.98545" lon="1.94504">
        <ele>464</ele>
        <time>2026-04-06T14:16:48.000Z</time>
      </trkpt>
      <trkpt lat="42.98545" lon="1.94492">
        <ele>464</ele>
        <time>2026-04-06T14:16:54.000Z</time>
      </trkpt>
      <trkpt lat="42.98546" lon="1.94479">
        <ele>464</ele>
        <time>2026-04-06T14:17:02.000Z</time>
      </trkpt>
      <trkpt lat="42.9855" lon="1.94467">
        <ele>463</ele>
        <time>2026-04-06T14:17:12.000Z</time>
      </trkpt>
      <trkpt lat="42.98554" lon="1.94456">
        <ele>463</ele>
        <time>2026-04-06T14:17:19.000Z</time>
      </trkpt>
      <trkpt lat="42.98557" lon="1.94444">
        <ele>463</ele>
        <time>2026-04-06T14:17:26.000Z</time>
      </trkpt>
      <trkpt lat="42.98559" lon="1.94432">
        <ele>464</ele>
        <time>2026-04-06T14:17:39.000Z</time>
      </trkpt>
      <trkpt lat="42.98566" lon="1.94423">
        <ele>465</ele>
        <time>2026-04-06T14:17:47.000Z</time>
      </trkpt>
      <trkpt lat="42.98573" lon="1.94415">
        <ele>466</ele>
        <time>2026-04-06T14:17:55.000Z</time>
      </trkpt>
      <trkpt lat="42.98577" lon="1.94405">
        <ele>467</ele>
        <time>2026-04-06T14:18:05.000Z</time>
      </trkpt>
      <trkpt lat="42.98583" lon="1.94397">
        <ele>467</ele>
        <time>2026-04-06T14:18:15.000Z</time>
      </trkpt>
      <trkpt lat="42.9859" lon="1.94387">
        <ele>467</ele>
        <time>2026-04-06T14:18:29.000Z</time>
      </trkpt>
      <trkpt lat="42.98592" lon="1.94375">
        <ele>467</ele>
        <time>2026-04-06T14:18:39.000Z</time>
      </trkpt>
      <trkpt lat="42.98597" lon="1.94363">
        <ele>466</ele>
        <time>2026-04-06T14:18:43.000Z</time>
      </trkpt>
      <trkpt lat="42.98599" lon="1.94351">
        <ele>466</ele>
        <time>2026-04-06T14:18:54.000Z</time>
      </trkpt>
      <trkpt lat="42.98601" lon="1.94339">
        <ele>466</ele>
        <time>2026-04-06T14:19:16.000Z</time>
      </trkpt>
      <trkpt lat="42.98606" lon="1.9433">
        <ele>466</ele>
        <time>2026-04-06T14:19:27.000Z</time>
      </trkpt>
      <trkpt lat="42.98604" lon="1.94319">
        <ele>465</ele>
        <time>2026-04-06T14:19:40.000Z</time>
      </trkpt>
      <trkpt lat="42.98606" lon="1.94307">
        <ele>464</ele>
        <time>2026-04-06T14:19:51.000Z</time>
      </trkpt>
      <trkpt lat="42.98613" lon="1.94295">
        <ele>463</ele>
        <time>2026-04-06T14:20:20.000Z</time>
      </trkpt>
      <trkpt lat="42.98613" lon="1.94283">
        <ele>463</ele>
        <time>2026-04-06T14:20:27.000Z</time>
      </trkpt>
      <trkpt lat="42.98612" lon="1.9427">
        <ele>462</ele>
        <time>2026-04-06T14:20:33.000Z</time>
      </trkpt>
      <trkpt lat="42.98607" lon="1.94261">
        <ele>461</ele>
        <time>2026-04-06T14:20:47.000Z</time>
      </trkpt>
      <trkpt lat="42.98599" lon="1.94255">
        <ele>460</ele>
        <time>2026-04-06T14:20:53.000Z</time>
      </trkpt>
      <trkpt lat="42.9859" lon="1.94249">
        <ele>460</ele>
        <time>2026-04-06T14:21:00.000Z</time>
      </trkpt>
      <trkpt lat="42.98583" lon="1.94241">
        <ele>459</ele>
        <time>2026-04-06T14:21:08.000Z</time>
      </trkpt>
      <trkpt lat="42.98576" lon="1.94233">
        <ele>460</ele>
        <time>2026-04-06T14:21:16.000Z</time>
      </trkpt>
      <trkpt lat="42.98568" lon="1.94224">
        <ele>460</ele>
        <time>2026-04-06T14:21:25.000Z</time>
      </trkpt>
      <trkpt lat="42.98561" lon="1.94213">
        <ele>460</ele>
        <time>2026-04-06T14:21:35.000Z</time>
      </trkpt>
      <trkpt lat="42.98555" lon="1.94202">
        <ele>461</ele>
        <time>2026-04-06T14:21:42.000Z</time>
      </trkpt>
      <trkpt lat="42.98546" lon="1.94196">
        <ele>460</ele>
        <time>2026-04-06T14:21:51.000Z</time>
      </trkpt>
      <trkpt lat="42.98538" lon="1.94189">
        <ele>460</ele>
        <time>2026-04-06T14:21:58.000Z</time>
      </trkpt>
      <trkpt lat="42.98531" lon="1.9418">
        <ele>460</ele>
        <time>2026-04-06T14:22:07.000Z</time>
      </trkpt>
      <trkpt lat="42.98524" lon="1.94168">
        <ele>460</ele>
        <time>2026-04-06T14:22:30.000Z</time>
      </trkpt>
      <trkpt lat="42.98515" lon="1.94161">
        <ele>459</ele>
        <time>2026-04-06T14:22:35.000Z</time>
      </trkpt>
      <trkpt lat="42.98508" lon="1.94151">
        <ele>459</ele>
        <time>2026-04-06T14:22:42.000Z</time>
      </trkpt>
      <trkpt lat="42.98501" lon="1.94139">
        <ele>460</ele>
        <time>2026-04-06T14:22:50.000Z</time>
      </trkpt>
      <trkpt lat="42.98494" lon="1.94131">
        <ele>460</ele>
        <time>2026-04-06T14:22:57.000Z</time>
      </trkpt>
      <trkpt lat="42.98485" lon="1.94122">
        <ele>461</ele>
        <time>2026-04-06T14:23:27.000Z</time>
      </trkpt>
      <trkpt lat="42.98479" lon="1.94112">
        <ele>461</ele>
        <time>2026-04-06T14:23:35.000Z</time>
      </trkpt>
      <trkpt lat="42.98473" lon="1.94102">
        <ele>462</ele>
        <time>2026-04-06T14:23:43.000Z</time>
      </trkpt>
      <trkpt lat="42.98466" lon="1.94093">
        <ele>463</ele>
        <time>2026-04-06T14:23:51.000Z</time>
      </trkpt>
      <trkpt lat="42.98458" lon="1.94084">
        <ele>463</ele>
        <time>2026-04-06T14:23:59.000Z</time>
      </trkpt>
      <trkpt lat="42.98449" lon="1.94074">
        <ele>463</ele>
        <time>2026-04-06T14:24:09.000Z</time>
      </trkpt>
      <trkpt lat="42.98441" lon="1.94065">
        <ele>463</ele>
        <time>2026-04-06T14:24:17.000Z</time>
      </trkpt>
      <trkpt lat="42.98434" lon="1.94056">
        <ele>462</ele>
        <time>2026-04-06T14:24:25.000Z</time>
      </trkpt>
      <trkpt lat="42.98427" lon="1.94047">
        <ele>462</ele>
        <time>2026-04-06T14:24:33.000Z</time>
      </trkpt>
      <trkpt lat="42.9842" lon="1.94037">
        <ele>462</ele>
        <time>2026-04-06T14:24:41.000Z</time>
      </trkpt>
      <trkpt lat="42.98413" lon="1.94028">
        <ele>461</ele>
        <time>2026-04-06T14:24:49.000Z</time>
      </trkpt>
      <trkpt lat="42.98406" lon="1.94019">
        <ele>461</ele>
        <time>2026-04-06T14:24:57.000Z</time>
      </trkpt>
      <trkpt lat="42.984" lon="1.9401">
        <ele>461</ele>
        <time>2026-04-06T14:25:05.000Z</time>
      </trkpt>
      <trkpt lat="42.98393" lon="1.94003">
        <ele>461</ele>
        <time>2026-04-06T14:25:13.000Z</time>
      </trkpt>
      <trkpt lat="42.98385" lon="1.93994">
        <ele>462</ele>
        <time>2026-04-06T14:25:21.000Z</time>
      </trkpt>
      <trkpt lat="42.98378" lon="1.93983">
        <ele>461</ele>
        <time>2026-04-06T14:25:31.000Z</time>
      </trkpt>
      <trkpt lat="42.98369" lon="1.93974">
        <ele>460</ele>
        <time>2026-04-06T14:25:40.000Z</time>
      </trkpt>
      <trkpt lat="42.9836" lon="1.93964">
        <ele>459</ele>
        <time>2026-04-06T14:25:49.000Z</time>
      </trkpt>
      <trkpt lat="42.98351" lon="1.93956">
        <ele>458</ele>
        <time>2026-04-06T14:25:56.000Z</time>
      </trkpt>
      <trkpt lat="42.98345" lon="1.93946">
        <ele>457</ele>
        <time>2026-04-06T14:26:16.000Z</time>
      </trkpt>
      <trkpt lat="42.98339" lon="1.93937">
        <ele>457</ele>
        <time>2026-04-06T14:26:25.000Z</time>
      </trkpt>
      <trkpt lat="42.9833" lon="1.93929">
        <ele>456</ele>
        <time>2026-04-06T14:26:37.000Z</time>
      </trkpt>
      <trkpt lat="42.98322" lon="1.9392">
        <ele>456</ele>
        <time>2026-04-06T14:26:46.000Z</time>
      </trkpt>
      <trkpt lat="42.98317" lon="1.9391">
        <ele>455</ele>
        <time>2026-04-06T14:26:52.000Z</time>
      </trkpt>
      <trkpt lat="42.98311" lon="1.93899">
        <ele>455</ele>
        <time>2026-04-06T14:26:59.000Z</time>
      </trkpt>
      <trkpt lat="42.98306" lon="1.93888">
        <ele>455</ele>
        <time>2026-04-06T14:27:07.000Z</time>
      </trkpt>
      <trkpt lat="42.98305" lon="1.93876">
        <ele>455</ele>
        <time>2026-04-06T14:27:17.000Z</time>
      </trkpt>
      <trkpt lat="42.98306" lon="1.93864">
        <ele>455</ele>
        <time>2026-04-06T14:27:25.000Z</time>
      </trkpt>
      <trkpt lat="42.9831" lon="1.93851">
        <ele>455</ele>
        <time>2026-04-06T14:27:34.000Z</time>
      </trkpt>
      <trkpt lat="42.98314" lon="1.93839">
        <ele>456</ele>
        <time>2026-04-06T14:27:42.000Z</time>
      </trkpt>
      <trkpt lat="42.9832" lon="1.93829">
        <ele>456</ele>
        <time>2026-04-06T14:27:50.000Z</time>
      </trkpt>
      <trkpt lat="42.98324" lon="1.93818">
        <ele>457</ele>
        <time>2026-04-06T14:27:57.000Z</time>
      </trkpt>
      <trkpt lat="42.98328" lon="1.93805">
        <ele>457</ele>
        <time>2026-04-06T14:28:03.000Z</time>
      </trkpt>
      <trkpt lat="42.98331" lon="1.9379">
        <ele>457</ele>
        <time>2026-04-06T14:28:10.000Z</time>
      </trkpt>
      <trkpt lat="42.98334" lon="1.93777">
        <ele>457</ele>
        <time>2026-04-06T14:28:17.000Z</time>
      </trkpt>
      <trkpt lat="42.98336" lon="1.93765">
        <ele>458</ele>
        <time>2026-04-06T14:28:23.000Z</time>
      </trkpt>
      <trkpt lat="42.98338" lon="1.93751">
        <ele>458</ele>
        <time>2026-04-06T14:28:32.000Z</time>
      </trkpt>
      <trkpt lat="42.98344" lon="1.93741">
        <ele>458</ele>
        <time>2026-04-06T14:28:41.000Z</time>
      </trkpt>
      <trkpt lat="42.98349" lon="1.93731">
        <ele>458</ele>
        <time>2026-04-06T14:28:47.000Z</time>
      </trkpt>
      <trkpt lat="42.98351" lon="1.93717">
        <ele>458</ele>
        <time>2026-04-06T14:28:53.000Z</time>
      </trkpt>
      <trkpt lat="42.98351" lon="1.937">
        <ele>458</ele>
        <time>2026-04-06T14:29:03.000Z</time>
      </trkpt>
      <trkpt lat="42.98352" lon="1.93686">
        <ele>458</ele>
        <time>2026-04-06T14:29:11.000Z</time>
      </trkpt>
      <trkpt lat="42.98353" lon="1.93673">
        <ele>458</ele>
        <time>2026-04-06T14:29:19.000Z</time>
      </trkpt>
      <trkpt lat="42.98351" lon="1.9366">
        <ele>458</ele>
        <time>2026-04-06T14:29:35.000Z</time>
      </trkpt>
      <trkpt lat="42.9835" lon="1.93647">
        <ele>458</ele>
        <time>2026-04-06T14:30:15.000Z</time>
      </trkpt>
      <trkpt lat="42.98351" lon="1.93634">
        <ele>458</ele>
        <time>2026-04-06T14:30:23.000Z</time>
      </trkpt>
      <trkpt lat="42.98354" lon="1.9362">
        <ele>458</ele>
        <time>2026-04-06T14:30:32.000Z</time>
      </trkpt>
      <trkpt lat="42.98358" lon="1.93609">
        <ele>458</ele>
        <time>2026-04-06T14:30:39.000Z</time>
      </trkpt>
      <trkpt lat="42.98361" lon="1.93596">
        <ele>458</ele>
        <time>2026-04-06T14:30:48.000Z</time>
      </trkpt>
      <trkpt lat="42.98361" lon="1.93582">
        <ele>458</ele>
        <time>2026-04-06T14:30:58.000Z</time>
      </trkpt>
      <trkpt lat="42.98362" lon="1.93568">
        <ele>458</ele>
        <time>2026-04-06T14:31:06.000Z</time>
      </trkpt>
      <trkpt lat="42.98363" lon="1.93554">
        <ele>458</ele>
        <time>2026-04-06T14:31:13.000Z</time>
      </trkpt>
      <trkpt lat="42.98366" lon="1.93542">
        <ele>458</ele>
        <time>2026-04-06T14:31:21.000Z</time>
      </trkpt>
      <trkpt lat="42.9837" lon="1.93531">
        <ele>458</ele>
        <time>2026-04-06T14:31:28.000Z</time>
      </trkpt>
      <trkpt lat="42.98368" lon="1.93519">
        <ele>458</ele>
        <time>2026-04-06T14:31:35.000Z</time>
      </trkpt>
      <trkpt lat="42.98364" lon="1.93507">
        <ele>458</ele>
        <time>2026-04-06T14:31:41.000Z</time>
      </trkpt>
      <trkpt lat="42.9836" lon="1.93494">
        <ele>458</ele>
        <time>2026-04-06T14:31:50.000Z</time>
      </trkpt>
      <trkpt lat="42.98358" lon="1.93481">
        <ele>458</ele>
        <time>2026-04-06T14:31:59.000Z</time>
      </trkpt>
      <trkpt lat="42.98352" lon="1.93469">
        <ele>458</ele>
        <time>2026-04-06T14:32:06.000Z</time>
      </trkpt>
      <trkpt lat="42.98349" lon="1.93456">
        <ele>458</ele>
        <time>2026-04-06T14:32:12.000Z</time>
      </trkpt>
      <trkpt lat="42.98351" lon="1.93443">
        <ele>458</ele>
        <time>2026-04-06T14:32:25.000Z</time>
      </trkpt>
      <trkpt lat="42.9835" lon="1.93429">
        <ele>458</ele>
        <time>2026-04-06T14:32:34.000Z</time>
      </trkpt>
    </trkseg>
  </trk>
</gpx>